<?xml version="1.0" encoding="UTF-8" standalone="no" ?><gpx xmlns="http://www.topografix.com/GPX/1/1" xmlns:gpxx="http://www.garmin.com/xmlschemas/GpxExtensions/v3" xmlns:wptx1="http://www.garmin.com/xmlschemas/WaypointExtension/v1" xmlns:gpxtpx="http://www.garmin.com/xmlschemas/TrackPointExtension/v1" creator="Dakota 20" version="1.1" xmlns:xsi="http://www.w3.org/2001/XMLSchema-instance" xsi:schemaLocation="http://www.topografix.com/GPX/1/1 http://www.topografix.com/GPX/1/1/gpx.xsd http://www.garmin.com/xmlschemas/GpxExtensions/v3 http://www8.garmin.com/xmlschemas/GpxExtensionsv3.xsd http://www.garmin.com/xmlschemas/WaypointExtension/v1 http://www8.garmin.com/xmlschemas/WaypointExtensionv1.xsd http://www.garmin.com/xmlschemas/TrackPointExtension/v1 http://www.garmin.com/xmlschemas/TrackPointExtensionv1.xsd"><metadata><link href="http://www.garmin.com"><text>Garmin International</text></link><time>2014-08-20T14:58:33Z</time></metadata><trk><name>Current Track: 20 AUG 2014 10:00</name><extensions><gpxx:TrackExtension><gpxx:DisplayColor>Cyan</gpxx:DisplayColor></gpxx:TrackExtension></extensions><trkseg><trkpt lat="51.6923551541" lon="-2.2016356140"><ele>73.20</ele><time>2014-08-20T09:00:20Z</time></trkpt><trkpt lat="51.6923779529" lon="-2.2016222030"><ele>72.24</ele><time>2014-08-20T09:00:39Z</time></trkpt><trkpt lat="51.6924116481" lon="-2.2013646271"><ele>73.20</ele><time>2014-08-20T09:00:58Z</time></trkpt><trkpt lat="51.6924408171" lon="-2.2011564206"><ele>73.68</ele><time>2014-08-20T09:01:14Z</time></trkpt><trkpt lat="51.6926117241" lon="-2.2008612938"><ele>74.16</ele><time>2014-08-20T09:01:32Z</time></trkpt><trkpt lat="51.6926286556" lon="-2.2007895447"><ele>74.64</ele><time>2014-08-20T09:01:36Z</time></trkpt><trkpt lat="51.6926725768" lon="-2.2005174682"><ele>75.12</ele><time>2014-08-20T09:01:52Z</time></trkpt><trkpt lat="51.6925900150" lon="-2.2005010396"><ele>75.60</ele><time>2014-08-20T09:02:09Z</time></trkpt><trkpt lat="51.6925683059" lon="-2.2004805878"><ele>76.08</ele><time>2014-08-20T09:02:32Z</time></trkpt><trkpt lat="51.6925717425" lon="-2.2004426178"><ele>77.04</ele><time>2014-08-20T09:02:49Z</time></trkpt><trkpt lat="51.6925217863" lon="-2.2004447971"><ele>78.97</ele><time>2014-08-20T09:03:06Z</time></trkpt><trkpt lat="51.6925014183" lon="-2.2004400194"><ele>80.41</ele><time>2014-08-20T09:03:23Z</time></trkpt><trkpt lat="51.6924053617" lon="-2.2003706172"><ele>83.29</ele><time>2014-08-20T09:03:44Z</time></trkpt><trkpt lat="51.6922743525" lon="-2.2002660111"><ele>85.69</ele><time>2014-08-20T09:04:02Z</time></trkpt><trkpt lat="51.6922153439" lon="-2.2002338246"><ele>85.69</ele><time>2014-08-20T09:04:18Z</time></trkpt><trkpt lat="51.6921050381" lon="-2.2001424618"><ele>87.62</ele><time>2014-08-20T09:04:34Z</time></trkpt><trkpt lat="51.6920026112" lon="-2.2000688687"><ele>89.06</ele><time>2014-08-20T09:04:51Z</time></trkpt><trkpt lat="51.6919390764" lon="-2.2000465728"><ele>89.54</ele><time>2014-08-20T09:05:07Z</time></trkpt><trkpt lat="51.6919063032" lon="-2.2000448965"><ele>90.50</ele><time>2014-08-20T09:05:24Z</time></trkpt><trkpt lat="51.6918888688" lon="-2.2000465728"><ele>90.50</ele><time>2014-08-20T09:05:29Z</time></trkpt><trkpt lat="51.6917506512" lon="-2.1999573056"><ele>92.90</ele><time>2014-08-20T09:05:44Z</time></trkpt><trkpt lat="51.6916560195" lon="-2.1999081876"><ele>93.87</ele><time>2014-08-20T09:06:01Z</time></trkpt><trkpt lat="51.6915500723" lon="-2.1998663619"><ele>96.27</ele><time>2014-08-20T09:06:20Z</time></trkpt><trkpt lat="51.6914489027" lon="-2.1999134682"><ele>97.71</ele><time>2014-08-20T09:06:43Z</time></trkpt><trkpt lat="51.6913789976" lon="-2.1999735665"><ele>98.67</ele><time>2014-08-20T09:07:02Z</time></trkpt><trkpt lat="51.6912910715" lon="-2.1999813616"><ele>100.60</ele><time>2014-08-20T09:07:17Z</time></trkpt><trkpt lat="51.6912394390" lon="-2.1999748237"><ele>101.56</ele><time>2014-08-20T09:07:35Z</time></trkpt><trkpt lat="51.6910868883" lon="-2.1999090258"><ele>103.00</ele><time>2014-08-20T09:07:53Z</time></trkpt><trkpt lat="51.6910737287" lon="-2.1998925135"><ele>104.44</ele><time>2014-08-20T09:08:14Z</time></trkpt><trkpt lat="51.6910204198" lon="-2.1998887416"><ele>106.36</ele><time>2014-08-20T09:08:36Z</time></trkpt><trkpt lat="51.6908464953" lon="-2.1999566350"><ele>107.81</ele><time>2014-08-20T09:08:58Z</time></trkpt><trkpt lat="51.6907996405" lon="-2.1999402903"><ele>108.29</ele><time>2014-08-20T09:09:17Z</time></trkpt><trkpt lat="51.6907230299" lon="-2.1999471635"><ele>109.25</ele><time>2014-08-20T09:09:33Z</time></trkpt><trkpt lat="51.6906553041" lon="-2.1999873128"><ele>111.17</ele><time>2014-08-20T09:09:54Z</time></trkpt><trkpt lat="51.6906232852" lon="-2.2000087705"><ele>111.65</ele><time>2014-08-20T09:10:08Z</time></trkpt><trkpt lat="51.6905338503" lon="-2.2000624146"><ele>113.09</ele><time>2014-08-20T09:10:25Z</time></trkpt><trkpt lat="51.6904619336" lon="-2.2001081798"><ele>114.53</ele><time>2014-08-20T09:10:43Z</time></trkpt><trkpt lat="51.6904539708" lon="-2.2001286317"><ele>114.05</ele><time>2014-08-20T09:11:04Z</time></trkpt><trkpt lat="51.6903795395" lon="-2.2001732234"><ele>115.01</ele><time>2014-08-20T09:11:28Z</time></trkpt><trkpt lat="51.6903045215" lon="-2.2002382670"><ele>116.46</ele><time>2014-08-20T09:11:46Z</time></trkpt><trkpt lat="51.6902819742" lon="-2.2002802603"><ele>116.94</ele><time>2014-08-20T09:12:04Z</time></trkpt><trkpt lat="51.6902497038" lon="-2.2003546078"><ele>117.90</ele><time>2014-08-20T09:12:21Z</time></trkpt><trkpt lat="51.6902271565" lon="-2.2004145384"><ele>116.94</ele><time>2014-08-20T09:12:44Z</time></trkpt><trkpt lat="51.6901728418" lon="-2.2004635725"><ele>118.86</ele><time>2014-08-20T09:13:04Z</time></trkpt><trkpt lat="51.6901221313" lon="-2.2005168814"><ele>119.82</ele><time>2014-08-20T09:13:26Z</time></trkpt><trkpt lat="51.6900198720" lon="-2.2006390058"><ele>120.78</ele><time>2014-08-20T09:13:48Z</time></trkpt><trkpt lat="51.6899948101" lon="-2.2006530873"><ele>122.71</ele><time>2014-08-20T09:14:09Z</time></trkpt><trkpt lat="51.6899778787" lon="-2.2006934043"><ele>124.15</ele><time>2014-08-20T09:14:31Z</time></trkpt><trkpt lat="51.6899655573" lon="-2.2006981820"><ele>124.15</ele><time>2014-08-20T09:14:51Z</time></trkpt><trkpt lat="51.6899641324" lon="-2.2006995231"><ele>125.59</ele><time>2014-08-20T09:15:15Z</time></trkpt><trkpt lat="51.6899119131" lon="-2.2008554265"><ele>127.03</ele><time>2014-08-20T09:15:33Z</time></trkpt><trkpt lat="51.6899647191" lon="-2.2008575220"><ele>126.07</ele><time>2014-08-20T09:15:51Z</time></trkpt><trkpt lat="51.6899721790" lon="-2.2008465417"><ele>126.07</ele><time>2014-08-20T09:16:09Z</time></trkpt><trkpt lat="51.6899119131" lon="-2.2009648941"><ele>127.51</ele><time>2014-08-20T09:16:18Z</time></trkpt><trkpt lat="51.6899166908" lon="-2.2011411656"><ele>130.40</ele><time>2014-08-20T09:16:26Z</time></trkpt><trkpt lat="51.6899088118" lon="-2.2013777867"><ele>133.76</ele><time>2014-08-20T09:16:39Z</time></trkpt><trkpt lat="51.6898993403" lon="-2.2014345322"><ele>133.76</ele><time>2014-08-20T09:16:58Z</time></trkpt><trkpt lat="51.6898712609" lon="-2.2014751006"><ele>134.72</ele><time>2014-08-20T09:17:19Z</time></trkpt><trkpt lat="51.6897855978" lon="-2.2016329318"><ele>136.16</ele><time>2014-08-20T09:17:37Z</time></trkpt><trkpt lat="51.6897074785" lon="-2.2016760986"><ele>136.64</ele><time>2014-08-20T09:17:50Z</time></trkpt><trkpt lat="51.6895972565" lon="-2.2016736679"><ele>139.53</ele><time>2014-08-20T09:18:08Z</time></trkpt><trkpt lat="51.6895033792" lon="-2.2016695607"><ele>140.97</ele><time>2014-08-20T09:18:27Z</time></trkpt><trkpt lat="51.6894233320" lon="-2.2016722430"><ele>142.41</ele><time>2014-08-20T09:18:45Z</time></trkpt><trkpt lat="51.6893044766" lon="-2.2018052638"><ele>144.34</ele><time>2014-08-20T09:19:02Z</time></trkpt><trkpt lat="51.6892729606" lon="-2.2019563895"><ele>146.26</ele><time>2014-08-20T09:19:19Z</time></trkpt><trkpt lat="51.6892821807" lon="-2.2020425554"><ele>147.22</ele><time>2014-08-20T09:19:36Z</time></trkpt><trkpt lat="51.6892933287" lon="-2.2022186592"><ele>148.18</ele><time>2014-08-20T09:19:54Z</time></trkpt><trkpt lat="51.6892493237" lon="-2.2025355790"><ele>148.66</ele><time>2014-08-20T09:20:11Z</time></trkpt><trkpt lat="51.6892359126" lon="-2.2027000319"><ele>149.62</ele><time>2014-08-20T09:20:31Z</time></trkpt><trkpt lat="51.6892192326" lon="-2.2028751299"><ele>150.10</ele><time>2014-08-20T09:20:49Z</time></trkpt><trkpt lat="51.6891835257" lon="-2.2030645609"><ele>151.54</ele><time>2014-08-20T09:21:08Z</time></trkpt><trkpt lat="51.6891469806" lon="-2.2032358870"><ele>153.47</ele><time>2014-08-20T09:21:24Z</time></trkpt><trkpt lat="51.6891304683" lon="-2.2033929639"><ele>153.95</ele><time>2014-08-20T09:21:39Z</time></trkpt><trkpt lat="51.6891226731" lon="-2.2035163455"><ele>154.91</ele><time>2014-08-20T09:21:57Z</time></trkpt><trkpt lat="51.6890832782" lon="-2.2036369611"><ele>155.39</ele><time>2014-08-20T09:22:12Z</time></trkpt><trkpt lat="51.6890566237" lon="-2.2037698142"><ele>156.83</ele><time>2014-08-20T09:22:31Z</time></trkpt><trkpt lat="51.6890372615" lon="-2.2038571537"><ele>157.79</ele><time>2014-08-20T09:22:50Z</time></trkpt><trkpt lat="51.6890002135" lon="-2.2040798608"><ele>158.75</ele><time>2014-08-20T09:23:05Z</time></trkpt><trkpt lat="51.6889778338" lon="-2.2042252868"><ele>161.16</ele><time>2014-08-20T09:23:27Z</time></trkpt><trkpt lat="51.6888998821" lon="-2.2044468205"><ele>162.60</ele><time>2014-08-20T09:23:45Z</time></trkpt><trkpt lat="51.6888360959" lon="-2.2045906540"><ele>164.52</ele><time>2014-08-20T09:24:04Z</time></trkpt><trkpt lat="51.6887942702" lon="-2.2047105990"><ele>165.96</ele><time>2014-08-20T09:24:18Z</time></trkpt><trkpt lat="51.6887503490" lon="-2.2047955077"><ele>167.41</ele><time>2014-08-20T09:24:38Z</time></trkpt><trkpt lat="51.6887332499" lon="-2.2047790792"><ele>168.37</ele><time>2014-08-20T09:24:58Z</time></trkpt><trkpt lat="51.6887335014" lon="-2.2047608905"><ele>168.85</ele><time>2014-08-20T09:25:21Z</time></trkpt><trkpt lat="51.6887500975" lon="-2.2047679313"><ele>165.00</ele><time>2014-08-20T09:25:35Z</time></trkpt><trkpt lat="51.6887578927" lon="-2.2047805041"><ele>168.85</ele><time>2014-08-20T09:25:37Z</time></trkpt><trkpt lat="51.6887594853" lon="-2.2047873773"><ele>168.85</ele><time>2014-08-20T09:25:38Z</time></trkpt><trkpt lat="51.6887568031" lon="-2.2048045602"><ele>167.89</ele><time>2014-08-20T09:25:40Z</time></trkpt><trkpt lat="51.6887442302" lon="-2.2048333101"><ele>169.33</ele><time>2014-08-20T09:25:42Z</time></trkpt><trkpt lat="51.6887003928" lon="-2.2050598729"><ele>167.89</ele><time>2014-08-20T09:26:00Z</time></trkpt><trkpt lat="51.6886281408" lon="-2.2047365829"><ele>168.37</ele><time>2014-08-20T09:26:18Z</time></trkpt><trkpt lat="51.6887122113" lon="-2.2045591380"><ele>168.37</ele><time>2014-08-20T09:26:37Z</time></trkpt><trkpt lat="51.6886438150" lon="-2.2043277137"><ele>168.85</ele><time>2014-08-20T09:26:50Z</time></trkpt><trkpt lat="51.6885900870" lon="-2.2042143904"><ele>168.85</ele><time>2014-08-20T09:27:07Z</time></trkpt><trkpt lat="51.6885476746" lon="-2.2040450759"><ele>169.81</ele><time>2014-08-20T09:27:24Z</time></trkpt><trkpt lat="51.6884584073" lon="-2.2037815489"><ele>170.29</ele><time>2014-08-20T09:27:43Z</time></trkpt><trkpt lat="51.6884216107" lon="-2.2035611887"><ele>170.77</ele><time>2014-08-20T09:28:03Z</time></trkpt><trkpt lat="51.6883778572" lon="-2.2032563388"><ele>171.25</ele><time>2014-08-20T09:28:24Z</time></trkpt><trkpt lat="51.6882905178" lon="-2.2030206397"><ele>172.21</ele><time>2014-08-20T09:28:45Z</time></trkpt><trkpt lat="51.6882641986" lon="-2.2028872836"><ele>173.17</ele><time>2014-08-20T09:29:00Z</time></trkpt><trkpt lat="51.6882682219" lon="-2.2028741241"><ele>172.21</ele><time>2014-08-20T09:29:28Z</time></trkpt><trkpt lat="51.6882569063" lon="-2.2026494052"><ele>172.21</ele><time>2014-08-20T09:29:44Z</time></trkpt><trkpt lat="51.6881575808" lon="-2.2023353353"><ele>173.17</ele><time>2014-08-20T09:30:02Z</time></trkpt><trkpt lat="51.6880510468" lon="-2.2020013165"><ele>173.66</ele><time>2014-08-20T09:30:21Z</time></trkpt><trkpt lat="51.6880274098" lon="-2.2019220237"><ele>174.62</ele><time>2014-08-20T09:30:43Z</time></trkpt><trkpt lat="51.6879203729" lon="-2.2019196767"><ele>174.62</ele><time>2014-08-20T09:31:04Z</time></trkpt><trkpt lat="51.6877706721" lon="-2.2019989695"><ele>177.98</ele><time>2014-08-20T09:31:14Z</time></trkpt><trkpt lat="51.6876726039" lon="-2.2019423917"><ele>177.98</ele><time>2014-08-20T09:31:33Z</time></trkpt><trkpt lat="51.6876063868" lon="-2.2017382085"><ele>178.46</ele><time>2014-08-20T09:31:53Z</time></trkpt><trkpt lat="51.6875704285" lon="-2.2014582530"><ele>178.46</ele><time>2014-08-20T09:32:14Z</time></trkpt><trkpt lat="51.6875173710" lon="-2.2012787964"><ele>177.98</ele><time>2014-08-20T09:32:34Z</time></trkpt><trkpt lat="51.6875176225" lon="-2.2010303568"><ele>177.98</ele><time>2014-08-20T09:32:54Z</time></trkpt><trkpt lat="51.6874633916" lon="-2.2007453721"><ele>178.46</ele><time>2014-08-20T09:33:12Z</time></trkpt><trkpt lat="51.6874764673" lon="-2.2005929891"><ele>178.94</ele><time>2014-08-20T09:33:33Z</time></trkpt><trkpt lat="51.6874110885" lon="-2.2001631651"><ele>179.42</ele><time>2014-08-20T09:33:56Z</time></trkpt><trkpt lat="51.6873524152" lon="-2.1998474188"><ele>179.90</ele><time>2014-08-20T09:34:20Z</time></trkpt><trkpt lat="51.6873370763" lon="-2.1995542198"><ele>180.87</ele><time>2014-08-20T09:34:43Z</time></trkpt><trkpt lat="51.6873335559" lon="-2.1995280683"><ele>180.38</ele><time>2014-08-20T09:34:45Z</time></trkpt><trkpt lat="51.6873200610" lon="-2.1993836481"><ele>181.35</ele><time>2014-08-20T09:34:55Z</time></trkpt><trkpt lat="51.6872493178" lon="-2.1990268305"><ele>181.35</ele><time>2014-08-20T09:35:19Z</time></trkpt><trkpt lat="51.6872280277" lon="-2.1988101583"><ele>181.35</ele><time>2014-08-20T09:35:38Z</time></trkpt><trkpt lat="51.6871914826" lon="-2.1986101661"><ele>181.83</ele><time>2014-08-20T09:36:01Z</time></trkpt><trkpt lat="51.6871931590" lon="-2.1982582938"><ele>182.31</ele><time>2014-08-20T09:36:20Z</time></trkpt><trkpt lat="51.6871903092" lon="-2.1980515961"><ele>182.79</ele><time>2014-08-20T09:36:41Z</time></trkpt><trkpt lat="51.6871714499" lon="-2.1977453213"><ele>183.27</ele><time>2014-08-20T09:37:00Z</time></trkpt><trkpt lat="51.6871411074" lon="-2.1974589117"><ele>183.27</ele><time>2014-08-20T09:37:20Z</time></trkpt><trkpt lat="51.6870887205" lon="-2.1972430777"><ele>183.27</ele><time>2014-08-20T09:37:39Z</time></trkpt><trkpt lat="51.6870585456" lon="-2.1969374735"><ele>183.27</ele><time>2014-08-20T09:38:01Z</time></trkpt><trkpt lat="51.6870337352" lon="-2.1966490522"><ele>182.79</ele><time>2014-08-20T09:38:22Z</time></trkpt><trkpt lat="51.6871139500" lon="-2.1963961702"><ele>182.31</ele><time>2014-08-20T09:38:40Z</time></trkpt><trkpt lat="51.6871970147" lon="-2.1960672643"><ele>181.83</ele><time>2014-08-20T09:39:04Z</time></trkpt><trkpt lat="51.6873257607" lon="-2.1958013065"><ele>180.87</ele><time>2014-08-20T09:39:23Z</time></trkpt><trkpt lat="51.6873869486" lon="-2.1956663579"><ele>180.38</ele><time>2014-08-20T09:39:34Z</time></trkpt><trkpt lat="51.6874699295" lon="-2.1953908447"><ele>178.46</ele><time>2014-08-20T09:39:53Z</time></trkpt><trkpt lat="51.6874923091" lon="-2.1951127332"><ele>176.06</ele><time>2014-08-20T09:40:14Z</time></trkpt><trkpt lat="51.6875504795" lon="-2.1948043630"><ele>173.66</ele><time>2014-08-20T09:40:33Z</time></trkpt><trkpt lat="51.6875731107" lon="-2.1944632195"><ele>171.25</ele><time>2014-08-20T09:40:52Z</time></trkpt><trkpt lat="51.6875999328" lon="-2.1942188870"><ele>169.81</ele><time>2014-08-20T09:41:14Z</time></trkpt><trkpt lat="51.6876094881" lon="-2.1941634826"><ele>168.37</ele><time>2014-08-20T09:41:34Z</time></trkpt><trkpt lat="51.6875825822" lon="-2.1939918213"><ele>166.93</ele><time>2014-08-20T09:41:53Z</time></trkpt><trkpt lat="51.6874866933" lon="-2.1936813556"><ele>165.00</ele><time>2014-08-20T09:42:14Z</time></trkpt><trkpt lat="51.6873918101" lon="-2.1934246179"><ele>163.08</ele><time>2014-08-20T09:42:31Z</time></trkpt><trkpt lat="51.6873064823" lon="-2.1931713168"><ele>161.16</ele><time>2014-08-20T09:42:53Z</time></trkpt><trkpt lat="51.6872333083" lon="-2.1929138247"><ele>159.72</ele><time>2014-08-20T09:43:09Z</time></trkpt><trkpt lat="51.6871207394" lon="-2.1925681550"><ele>159.72</ele><time>2014-08-20T09:43:31Z</time></trkpt><trkpt lat="51.6870820988" lon="-2.1923641395"><ele>159.24</ele><time>2014-08-20T09:43:51Z</time></trkpt><trkpt lat="51.6870837752" lon="-2.1922316216"><ele>159.24</ele><time>2014-08-20T09:44:12Z</time></trkpt><trkpt lat="51.6870289575" lon="-2.1920036338"><ele>158.75</ele><time>2014-08-20T09:44:30Z</time></trkpt><trkpt lat="51.6869286261" lon="-2.1917377599"><ele>159.72</ele><time>2014-08-20T09:44:49Z</time></trkpt><trkpt lat="51.6868895665" lon="-2.1916438825"><ele>159.24</ele><time>2014-08-20T09:45:07Z</time></trkpt><trkpt lat="51.6868650075" lon="-2.1915745642"><ele>159.24</ele><time>2014-08-20T09:45:35Z</time></trkpt><trkpt lat="51.6868185718" lon="-2.1914750710"><ele>158.75</ele><time>2014-08-20T09:45:51Z</time></trkpt><trkpt lat="51.6867385246" lon="-2.1912159026"><ele>158.75</ele><time>2014-08-20T09:46:08Z</time></trkpt><trkpt lat="51.6867319029" lon="-2.1911953669"><ele>158.75</ele><time>2014-08-20T09:46:09Z</time></trkpt><trkpt lat="51.6867072601" lon="-2.1909755096"><ele>156.35</ele><time>2014-08-20T09:46:24Z</time></trkpt><trkpt lat="51.6866516881" lon="-2.1907154191"><ele>155.87</ele><time>2014-08-20T09:46:44Z</time></trkpt><trkpt lat="51.6865829565" lon="-2.1905599348"><ele>153.95</ele><time>2014-08-20T09:46:59Z</time></trkpt><trkpt lat="51.6865299828" lon="-2.1902423445"><ele>152.99</ele><time>2014-08-20T09:47:18Z</time></trkpt><trkpt lat="51.6865271330" lon="-2.1902078949"><ele>151.54</ele><time>2014-08-20T09:47:20Z</time></trkpt><trkpt lat="51.6864519473" lon="-2.1899968386"><ele>151.06</ele><time>2014-08-20T09:47:40Z</time></trkpt><trkpt lat="51.6864061821" lon="-2.1898903046"><ele>150.58</ele><time>2014-08-20T09:47:58Z</time></trkpt><trkpt lat="51.6863996442" lon="-2.1899346448"><ele>150.58</ele><time>2014-08-20T09:48:15Z</time></trkpt><trkpt lat="51.6864108760" lon="-2.1899427753"><ele>147.22</ele><time>2014-08-20T09:48:24Z</time></trkpt><trkpt lat="51.6864154022" lon="-2.1899582818"><ele>148.66</ele><time>2014-08-20T09:48:25Z</time></trkpt><trkpt lat="51.6864164080" lon="-2.1899771411"><ele>151.54</ele><time>2014-08-20T09:48:26Z</time></trkpt><trkpt lat="51.6863858141" lon="-2.1899041347"><ele>149.62</ele><time>2014-08-20T09:48:43Z</time></trkpt><trkpt lat="51.6863551363" lon="-2.1895688586"><ele>148.18</ele><time>2014-08-20T09:48:58Z</time></trkpt><trkpt lat="51.6863563936" lon="-2.1892031562"><ele>148.66</ele><time>2014-08-20T09:49:15Z</time></trkpt><trkpt lat="51.6863435693" lon="-2.1889306605"><ele>147.70</ele><time>2014-08-20T09:49:29Z</time></trkpt><trkpt lat="51.6863218602" lon="-2.1887579095"><ele>145.78</ele><time>2014-08-20T09:49:39Z</time></trkpt><trkpt lat="51.6862444114" lon="-2.1884421632"><ele>143.85</ele><time>2014-08-20T09:49:56Z</time></trkpt><trkpt lat="51.6862303298" lon="-2.1882507205"><ele>145.30</ele><time>2014-08-20T09:50:08Z</time></trkpt><trkpt lat="51.6862060223" lon="-2.1881990042"><ele>143.85</ele><time>2014-08-20T09:50:11Z</time></trkpt><trkpt lat="51.6861498635" lon="-2.1879157797"><ele>143.85</ele><time>2014-08-20T09:50:27Z</time></trkpt><trkpt lat="51.6861455049" lon="-2.1875956748"><ele>144.34</ele><time>2014-08-20T09:50:47Z</time></trkpt><trkpt lat="51.6860882565" lon="-2.1873547789"><ele>141.93</ele><time>2014-08-20T09:51:04Z</time></trkpt><trkpt lat="51.6861082055" lon="-2.1872851253"><ele>144.34</ele><time>2014-08-20T09:51:08Z</time></trkpt><trkpt lat="51.6861163359" lon="-2.1871473268"><ele>144.82</ele><time>2014-08-20T09:51:16Z</time></trkpt><trkpt lat="51.6861270647" lon="-2.1867361944"><ele>143.85</ele><time>2014-08-20T09:51:40Z</time></trkpt><trkpt lat="51.6861260589" lon="-2.1865387168"><ele>143.37</ele><time>2014-08-20T09:51:57Z</time></trkpt><trkpt lat="51.6861056071" lon="-2.1865742560"><ele>143.37</ele><time>2014-08-20T09:52:15Z</time></trkpt><trkpt lat="51.6861539707" lon="-2.1865113918"><ele>141.93</ele><time>2014-08-20T09:52:36Z</time></trkpt><trkpt lat="51.6861371230" lon="-2.1864815522"><ele>143.37</ele><time>2014-08-20T09:52:39Z</time></trkpt><trkpt lat="51.6861022543" lon="-2.1864093840"><ele>142.41</ele><time>2014-08-20T09:52:43Z</time></trkpt><trkpt lat="51.6860817187" lon="-2.1863522194"><ele>143.85</ele><time>2014-08-20T09:52:48Z</time></trkpt><trkpt lat="51.6860543098" lon="-2.1862918697"><ele>144.34</ele><time>2014-08-20T09:52:54Z</time></trkpt><trkpt lat="51.6860010009" lon="-2.1861914545"><ele>142.89</ele><time>2014-08-20T09:53:01Z</time></trkpt><trkpt lat="51.6859939601" lon="-2.1861523949"><ele>144.34</ele><time>2014-08-20T09:53:03Z</time></trkpt><trkpt lat="51.6859594267" lon="-2.1860078070"><ele>144.34</ele><time>2014-08-20T09:53:19Z</time></trkpt><trkpt lat="51.6859526373" lon="-2.1859539114"><ele>144.82</ele><time>2014-08-20T09:53:25Z</time></trkpt><trkpt lat="51.6859178524" lon="-2.1855551004"><ele>144.82</ele><time>2014-08-20T09:53:45Z</time></trkpt><trkpt lat="51.6859026812" lon="-2.1854680963"><ele>144.34</ele><time>2014-08-20T09:54:02Z</time></trkpt><trkpt lat="51.6858834866" lon="-2.1853291243"><ele>145.78</ele><time>2014-08-20T09:54:12Z</time></trkpt><trkpt lat="51.6858871747" lon="-2.1852033958"><ele>144.82</ele><time>2014-08-20T09:54:21Z</time></trkpt><trkpt lat="51.6858593468" lon="-2.1849794313"><ele>144.82</ele><time>2014-08-20T09:54:38Z</time></trkpt><trkpt lat="51.6858499590" lon="-2.1849383600"><ele>145.78</ele><time>2014-08-20T09:54:40Z</time></trkpt><trkpt lat="51.6857773717" lon="-2.1846339293"><ele>146.26</ele><time>2014-08-20T09:54:58Z</time></trkpt><trkpt lat="51.6857679840" lon="-2.1845857333"><ele>144.82</ele><time>2014-08-20T09:55:01Z</time></trkpt><trkpt lat="51.6857471131" lon="-2.1844690572"><ele>146.26</ele><time>2014-08-20T09:55:22Z</time></trkpt><trkpt lat="51.6857099812" lon="-2.1842974797"><ele>146.26</ele><time>2014-08-20T09:55:33Z</time></trkpt><trkpt lat="51.6856794711" lon="-2.1841314342"><ele>145.78</ele><time>2014-08-20T09:55:43Z</time></trkpt><trkpt lat="51.6856405791" lon="-2.1839611977"><ele>145.30</ele><time>2014-08-20T09:56:00Z</time></trkpt><trkpt lat="51.6855757870" lon="-2.1838199627"><ele>144.82</ele><time>2014-08-20T09:56:17Z</time></trkpt><trkpt lat="51.6855151020" lon="-2.1835592855"><ele>143.37</ele><time>2014-08-20T09:56:35Z</time></trkpt><trkpt lat="51.6854160279" lon="-2.1832633205"><ele>143.85</ele><time>2014-08-20T09:56:53Z</time></trkpt><trkpt lat="51.6854129266" lon="-2.1832489874"><ele>143.37</ele><time>2014-08-20T09:56:54Z</time></trkpt><trkpt lat="51.6853544209" lon="-2.1830289625"><ele>142.41</ele><time>2014-08-20T09:57:09Z</time></trkpt><trkpt lat="51.6853167862" lon="-2.1828652639"><ele>141.45</ele><time>2014-08-20T09:57:24Z</time></trkpt><trkpt lat="51.6853108350" lon="-2.1828049980"><ele>140.97</ele><time>2014-08-20T09:57:51Z</time></trkpt><trkpt lat="51.6853127629" lon="-2.1827228554"><ele>139.53</ele><time>2014-08-20T09:57:55Z</time></trkpt><trkpt lat="51.6853141040" lon="-2.1826996375"><ele>139.53</ele><time>2014-08-20T09:57:56Z</time></trkpt><trkpt lat="51.6853161156" lon="-2.1826486755"><ele>140.97</ele><time>2014-08-20T09:57:59Z</time></trkpt><trkpt lat="51.6852959991" lon="-2.1824850608"><ele>139.05</ele><time>2014-08-20T09:58:11Z</time></trkpt><trkpt lat="51.6851934884" lon="-2.1821029298"><ele>138.09</ele><time>2014-08-20T09:58:28Z</time></trkpt><trkpt lat="51.6851630621" lon="-2.1820545662"><ele>137.61</ele><time>2014-08-20T09:58:47Z</time></trkpt><trkpt lat="51.6851508245" lon="-2.1820226312"><ele>138.09</ele><time>2014-08-20T09:59:06Z</time></trkpt><trkpt lat="51.6851394251" lon="-2.1820084658"><ele>138.57</ele><time>2014-08-20T09:59:27Z</time></trkpt><trkpt lat="51.6851594578" lon="-2.1820227988"><ele>138.57</ele><time>2014-08-20T09:59:55Z</time></trkpt><trkpt lat="51.6851559374" lon="-2.1820173506"><ele>137.61</ele><time>2014-08-20T10:00:22Z</time></trkpt><trkpt lat="51.6851605475" lon="-2.1819997486"><ele>137.61</ele><time>2014-08-20T10:00:48Z</time></trkpt><trkpt lat="51.6851399280" lon="-2.1820082981"><ele>138.09</ele><time>2014-08-20T10:01:09Z</time></trkpt><trkpt lat="51.6851380840" lon="-2.1820070408"><ele>138.09</ele><time>2014-08-20T10:01:34Z</time></trkpt><trkpt lat="51.6851778980" lon="-2.1820154227"><ele>138.09</ele><time>2014-08-20T10:01:59Z</time></trkpt><trkpt lat="51.6851754673" lon="-2.1820136625"><ele>138.09</ele><time>2014-08-20T10:02:23Z</time></trkpt><trkpt lat="51.6851539258" lon="-2.1819891036"><ele>138.09</ele><time>2014-08-20T10:02:44Z</time></trkpt><trkpt lat="51.6851437837" lon="-2.1819878463"><ele>138.09</ele><time>2014-08-20T10:03:17Z</time></trkpt><trkpt lat="51.6851382516" lon="-2.1819961444"><ele>138.57</ele><time>2014-08-20T10:03:44Z</time></trkpt><trkpt lat="51.6851417720" lon="-2.1819998324"><ele>138.09</ele><time>2014-08-20T10:04:08Z</time></trkpt><trkpt lat="51.6851358209" lon="-2.1820089687"><ele>138.57</ele><time>2014-08-20T10:04:34Z</time></trkpt><trkpt lat="51.6851753835" lon="-2.1820065379"><ele>138.57</ele><time>2014-08-20T10:04:56Z</time></trkpt><trkpt lat="51.6851742938" lon="-2.1820037719"><ele>141.45</ele><time>2014-08-20T10:05:10Z</time></trkpt><trkpt lat="51.6851708572" lon="-2.1819951385"><ele>138.57</ele><time>2014-08-20T10:05:12Z</time></trkpt><trkpt lat="51.6851683427" lon="-2.1820021793"><ele>138.09</ele><time>2014-08-20T10:05:38Z</time></trkpt><trkpt lat="51.6851630621" lon="-2.1820005029"><ele>137.61</ele><time>2014-08-20T10:06:06Z</time></trkpt><trkpt lat="51.6851549316" lon="-2.1819987427"><ele>138.09</ele><time>2014-08-20T10:06:44Z</time></trkpt><trkpt lat="51.6851494834" lon="-2.1819988266"><ele>138.09</ele><time>2014-08-20T10:07:18Z</time></trkpt><trkpt lat="51.6851437837" lon="-2.1819978207"><ele>138.57</ele><time>2014-08-20T10:07:52Z</time></trkpt><trkpt lat="51.6851582006" lon="-2.1818949748"><ele>138.09</ele><time>2014-08-20T10:08:13Z</time></trkpt><trkpt lat="51.6851458792" lon="-2.1819371358"><ele>138.57</ele><time>2014-08-20T10:08:39Z</time></trkpt><trkpt lat="51.6851402633" lon="-2.1819463558"><ele>139.05</ele><time>2014-08-20T10:09:02Z</time></trkpt><trkpt lat="51.6851231642" lon="-2.1817940567"><ele>138.09</ele><time>2014-08-20T10:09:19Z</time></trkpt><trkpt lat="51.6850077454" lon="-2.1814871114"><ele>135.68</ele><time>2014-08-20T10:09:39Z</time></trkpt><trkpt lat="51.6849167179" lon="-2.1813348122"><ele>135.68</ele><time>2014-08-20T10:09:57Z</time></trkpt><trkpt lat="51.6847802605" lon="-2.1812129393"><ele>134.24</ele><time>2014-08-20T10:10:19Z</time></trkpt><trkpt lat="51.6845635045" lon="-2.1811033878"><ele>134.24</ele><time>2014-08-20T10:10:43Z</time></trkpt><trkpt lat="51.6844257060" lon="-2.1810161322"><ele>133.76</ele><time>2014-08-20T10:10:57Z</time></trkpt><trkpt lat="51.6842579003" lon="-2.1808637492"><ele>132.80</ele><time>2014-08-20T10:11:19Z</time></trkpt><trkpt lat="51.6841110494" lon="-2.1807956882"><ele>132.80</ele><time>2014-08-20T10:11:36Z</time></trkpt><trkpt lat="51.6839988157" lon="-2.1806688700"><ele>133.28</ele><time>2014-08-20T10:11:56Z</time></trkpt><trkpt lat="51.6838987358" lon="-2.1806311514"><ele>132.80</ele><time>2014-08-20T10:12:14Z</time></trkpt><trkpt lat="51.6837096401" lon="-2.1805574745"><ele>130.88</ele><time>2014-08-20T10:12:34Z</time></trkpt><trkpt lat="51.6836571693" lon="-2.1806159802"><ele>131.36</ele><time>2014-08-20T10:12:51Z</time></trkpt><trkpt lat="51.6835048702" lon="-2.1803865675"><ele>131.84</ele><time>2014-08-20T10:13:09Z</time></trkpt><trkpt lat="51.6833394114" lon="-2.1802598331"><ele>130.88</ele><time>2014-08-20T10:13:33Z</time></trkpt><trkpt lat="51.6832636390" lon="-2.1802739985"><ele>131.36</ele><time>2014-08-20T10:13:54Z</time></trkpt><trkpt lat="51.6831254214" lon="-2.1801870782"><ele>128.95</ele><time>2014-08-20T10:14:16Z</time></trkpt><trkpt lat="51.6828800831" lon="-2.1800196916"><ele>127.03</ele><time>2014-08-20T10:14:33Z</time></trkpt><trkpt lat="51.6826764867" lon="-2.1797614451"><ele>126.55</ele><time>2014-08-20T10:14:52Z</time></trkpt><trkpt lat="51.6826185677" lon="-2.1796597727"><ele>125.59</ele><time>2014-08-20T10:15:03Z</time></trkpt><trkpt lat="51.6824899893" lon="-2.1794346347"><ele>122.71</ele><time>2014-08-20T10:15:24Z</time></trkpt><trkpt lat="51.6824083496" lon="-2.1791988518"><ele>121.74</ele><time>2014-08-20T10:15:42Z</time></trkpt><trkpt lat="51.6822907515" lon="-2.1790245082"><ele>121.26</ele><time>2014-08-20T10:15:59Z</time></trkpt><trkpt lat="51.6820648592" lon="-2.1789015457"><ele>119.82</ele><time>2014-08-20T10:16:17Z</time></trkpt><trkpt lat="51.6820370313" lon="-2.1788742207"><ele>117.90</ele><time>2014-08-20T10:16:39Z</time></trkpt><trkpt lat="51.6820447426" lon="-2.1789008752"><ele>118.86</ele><time>2014-08-20T10:16:41Z</time></trkpt><trkpt lat="51.6820316669" lon="-2.1789027192"><ele>115.50</ele><time>2014-08-20T10:16:43Z</time></trkpt><trkpt lat="51.6820326727" lon="-2.1789136995"><ele>118.86</ele><time>2014-08-20T10:16:44Z</time></trkpt><trkpt lat="51.6820625123" lon="-2.1790230833"><ele>118.38</ele><time>2014-08-20T10:16:57Z</time></trkpt><trkpt lat="51.6820799466" lon="-2.1790317167"><ele>120.30</ele><time>2014-08-20T10:16:59Z</time></trkpt><trkpt lat="51.6821241193" lon="-2.1790459659"><ele>115.98</ele><time>2014-08-20T10:17:02Z</time></trkpt><trkpt lat="51.6821448226" lon="-2.1790530067"><ele>120.30</ele><time>2014-08-20T10:17:03Z</time></trkpt><trkpt lat="51.6822989658" lon="-2.1791035496"><ele>119.34</ele><time>2014-08-20T10:17:09Z</time></trkpt><trkpt lat="51.6823742352" lon="-2.1791309584"><ele>122.22</ele><time>2014-08-20T10:17:12Z</time></trkpt><trkpt lat="51.6824881453" lon="-2.1791975107"><ele>118.86</ele><time>2014-08-20T10:17:18Z</time></trkpt><trkpt lat="51.6825034004" lon="-2.1792056412"><ele>121.74</ele><time>2014-08-20T10:17:19Z</time></trkpt><trkpt lat="51.6825186554" lon="-2.1792132687"><ele>122.22</ele><time>2014-08-20T10:17:20Z</time></trkpt><trkpt lat="51.6825332399" lon="-2.1792192198"><ele>123.67</ele><time>2014-08-20T10:17:21Z</time></trkpt><trkpt lat="51.6825469863" lon="-2.1792233270"><ele>120.30</ele><time>2014-08-20T10:17:22Z</time></trkpt><trkpt lat="51.6825840343" lon="-2.1792392526"><ele>125.11</ele><time>2014-08-20T10:17:25Z</time></trkpt><trkpt lat="51.6825935896" lon="-2.1792439464"><ele>118.86</ele><time>2014-08-20T10:17:26Z</time></trkpt><trkpt lat="51.6826030612" lon="-2.1792472992"><ele>122.71</ele><time>2014-08-20T10:17:27Z</time></trkpt><trkpt lat="51.6826172266" lon="-2.1792604588"><ele>125.59</ele><time>2014-08-20T10:17:29Z</time></trkpt><trkpt lat="51.6826215852" lon="-2.1792720258"><ele>124.15</ele><time>2014-08-20T10:17:30Z</time></trkpt><trkpt lat="51.6826225910" lon="-2.1793008596"><ele>119.34</ele><time>2014-08-20T10:17:32Z</time></trkpt><trkpt lat="51.6826229263" lon="-2.1793170366"><ele>123.19</ele><time>2014-08-20T10:17:33Z</time></trkpt><trkpt lat="51.6822723951" lon="-2.1795613691"><ele>126.55</ele><time>2014-08-20T10:17:39Z</time></trkpt><trkpt lat="51.6822692100" lon="-2.1795728523"><ele>125.59</ele><time>2014-08-20T10:17:40Z</time></trkpt><trkpt lat="51.6822146438" lon="-2.1796176117"><ele>122.71</ele><time>2014-08-20T10:17:42Z</time></trkpt><trkpt lat="51.6821528692" lon="-2.1796656400"><ele>125.59</ele><time>2014-08-20T10:17:45Z</time></trkpt><trkpt lat="51.6821351834" lon="-2.1796780452"><ele>125.59</ele><time>2014-08-20T10:17:46Z</time></trkpt><trkpt lat="51.6820850596" lon="-2.1797115728"><ele>123.19</ele><time>2014-08-20T10:17:49Z</time></trkpt><trkpt lat="51.6820605006" lon="-2.1797346231"><ele>127.03</ele><time>2014-08-20T10:17:52Z</time></trkpt><trkpt lat="51.6820785217" lon="-2.1798978187"><ele>127.99</ele><time>2014-08-20T10:18:09Z</time></trkpt><trkpt lat="51.6821134742" lon="-2.1799307596"><ele>123.67</ele><time>2014-08-20T10:18:17Z</time></trkpt><trkpt lat="51.6821205989" lon="-2.1799293347"><ele>127.99</ele><time>2014-08-20T10:18:18Z</time></trkpt><trkpt lat="51.6821288969" lon="-2.1799269039"><ele>130.40</ele><time>2014-08-20T10:18:19Z</time></trkpt><trkpt lat="51.6821335070" lon="-2.1799253952"><ele>125.59</ele><time>2014-08-20T10:18:20Z</time></trkpt><trkpt lat="51.6821420565" lon="-2.1799227130"><ele>128.47</ele><time>2014-08-20T10:18:21Z</time></trkpt><trkpt lat="51.6821513604" lon="-2.1799219586"><ele>129.92</ele><time>2014-08-20T10:18:22Z</time></trkpt><trkpt lat="51.6821673699" lon="-2.1799210366"><ele>129.92</ele><time>2014-08-20T10:18:23Z</time></trkpt><trkpt lat="51.6821822058" lon="-2.1799237188"><ele>127.03</ele><time>2014-08-20T10:18:24Z</time></trkpt><trkpt lat="51.6821931023" lon="-2.1799223777"><ele>128.47</ele><time>2014-08-20T10:18:25Z</time></trkpt><trkpt lat="51.6822345927" lon="-2.1799264848"><ele>127.99</ele><time>2014-08-20T10:18:28Z</time></trkpt><trkpt lat="51.6822649352" lon="-2.1799420752"><ele>130.40</ele><time>2014-08-20T10:18:30Z</time></trkpt><trkpt lat="51.6822744068" lon="-2.1799461823"><ele>125.59</ele><time>2014-08-20T10:18:31Z</time></trkpt><trkpt lat="51.6822851356" lon="-2.1799554862"><ele>129.92</ele><time>2014-08-20T10:18:32Z</time></trkpt><trkpt lat="51.6822967026" lon="-2.1799632814"><ele>131.36</ele><time>2014-08-20T10:18:33Z</time></trkpt><trkpt lat="51.6823119577" lon="-2.1799727529"><ele>127.51</ele><time>2014-08-20T10:18:34Z</time></trkpt><trkpt lat="51.6823221836" lon="-2.1799766924"><ele>127.03</ele><time>2014-08-20T10:18:35Z</time></trkpt><trkpt lat="51.6823322419" lon="-2.1799788717"><ele>130.40</ele><time>2014-08-20T10:18:36Z</time></trkpt><trkpt lat="51.6823424678" lon="-2.1799782012"><ele>133.28</ele><time>2014-08-20T10:18:37Z</time></trkpt><trkpt lat="51.6823563818" lon="-2.1799787879"><ele>127.03</ele><time>2014-08-20T10:18:38Z</time></trkpt><trkpt lat="51.6823715530" lon="-2.1799780335"><ele>130.40</ele><time>2014-08-20T10:18:39Z</time></trkpt><trkpt lat="51.6824184079" lon="-2.1799725015"><ele>128.47</ele><time>2014-08-20T10:18:41Z</time></trkpt><trkpt lat="51.6824317351" lon="-2.1799645387"><ele>130.88</ele><time>2014-08-20T10:18:42Z</time></trkpt><trkpt lat="51.6825133748" lon="-2.1799388062"><ele>127.99</ele><time>2014-08-20T10:18:45Z</time></trkpt><trkpt lat="51.6826194059" lon="-2.1799163427"><ele>129.43</ele><time>2014-08-20T10:18:49Z</time></trkpt><trkpt lat="51.6826411989" lon="-2.1799032670"><ele>131.36</ele><time>2014-08-20T10:18:50Z</time></trkpt><trkpt lat="51.6828651633" lon="-2.1799227968"><ele>129.92</ele><time>2014-08-20T10:18:59Z</time></trkpt><trkpt lat="51.6829252616" lon="-2.1799848229"><ele>132.32</ele><time>2014-08-20T10:19:02Z</time></trkpt><trkpt lat="51.6828579549" lon="-2.1800281573"><ele>135.68</ele><time>2014-08-20T10:19:03Z</time></trkpt><trkpt lat="51.6828050651" lon="-2.1800675523"><ele>131.36</ele><time>2014-08-20T10:19:04Z</time></trkpt><trkpt lat="51.6824574675" lon="-2.1803349350"><ele>136.16</ele><time>2014-08-20T10:19:07Z</time></trkpt><trkpt lat="51.6823625006" lon="-2.1804325841"><ele>131.84</ele><time>2014-08-20T10:19:08Z</time></trkpt><trkpt lat="51.6821636818" lon="-2.1805618331"><ele>133.28</ele><time>2014-08-20T10:19:25Z</time></trkpt><trkpt lat="51.6821610834" lon="-2.1805718914"><ele>132.80</ele><time>2014-08-20T10:19:50Z</time></trkpt><trkpt lat="51.6821915936" lon="-2.1805961151"><ele>131.84</ele><time>2014-08-20T10:20:14Z</time></trkpt><trkpt lat="51.6821884084" lon="-2.1805726457"><ele>132.32</ele><time>2014-08-20T10:20:18Z</time></trkpt><trkpt lat="51.6822193377" lon="-2.1805972885"><ele>131.84</ele><time>2014-08-20T10:20:26Z</time></trkpt><trkpt lat="51.6822328325" lon="-2.1806289721"><ele>136.16</ele><time>2014-08-20T10:20:28Z</time></trkpt><trkpt lat="51.6822541226" lon="-2.1808199957"><ele>136.16</ele><time>2014-08-20T10:20:34Z</time></trkpt><trkpt lat="51.6822634265" lon="-2.1808571275"><ele>131.84</ele><time>2014-08-20T10:20:35Z</time></trkpt><trkpt lat="51.6822884884" lon="-2.1809228417"><ele>134.72</ele><time>2014-08-20T10:20:37Z</time></trkpt><trkpt lat="51.6823994648" lon="-2.1810854506"><ele>131.84</ele><time>2014-08-20T10:20:46Z</time></trkpt><trkpt lat="51.6824113671" lon="-2.1810929943"><ele>134.72</ele><time>2014-08-20T10:20:47Z</time></trkpt><trkpt lat="51.6825662646" lon="-2.1811890509"><ele>130.88</ele><time>2014-08-20T10:21:03Z</time></trkpt><trkpt lat="51.6825766582" lon="-2.1811827645"><ele>139.05</ele><time>2014-08-20T10:21:04Z</time></trkpt><trkpt lat="51.6825841181" lon="-2.1811722871"><ele>138.09</ele><time>2014-08-20T10:21:05Z</time></trkpt><trkpt lat="51.6825972777" lon="-2.1811721195"><ele>136.64</ele><time>2014-08-20T10:21:06Z</time></trkpt><trkpt lat="51.6826152988" lon="-2.1811582055"><ele>134.24</ele><time>2014-08-20T10:21:08Z</time></trkpt><trkpt lat="51.6826264467" lon="-2.1811592113"><ele>136.16</ele><time>2014-08-20T10:21:09Z</time></trkpt><trkpt lat="51.6827153787" lon="-2.1811302099"><ele>135.20</ele><time>2014-08-20T10:21:16Z</time></trkpt><trkpt lat="51.6827276163" lon="-2.1811349876"><ele>137.13</ele><time>2014-08-20T10:21:17Z</time></trkpt><trkpt lat="51.6827413626" lon="-2.1811719518"><ele>135.20</ele><time>2014-08-20T10:21:33Z</time></trkpt><trkpt lat="51.6827480681" lon="-2.1811715327"><ele>138.57</ele><time>2014-08-20T10:21:34Z</time></trkpt><trkpt lat="51.6827601381" lon="-2.1811753884"><ele>136.16</ele><time>2014-08-20T10:21:36Z</time></trkpt><trkpt lat="51.6827656701" lon="-2.1811750531"><ele>138.57</ele><time>2014-08-20T10:21:37Z</time></trkpt><trkpt lat="51.6827779077" lon="-2.1811805852"><ele>138.57</ele><time>2014-08-20T10:21:39Z</time></trkpt><trkpt lat="51.6826742236" lon="-2.1813206468"><ele>140.01</ele><time>2014-08-20T10:21:47Z</time></trkpt><trkpt lat="51.6825857945" lon="-2.1814375743"><ele>138.57</ele><time>2014-08-20T10:21:54Z</time></trkpt><trkpt lat="51.6825847887" lon="-2.1814467106"><ele>140.01</ele><time>2014-08-20T10:21:56Z</time></trkpt><trkpt lat="51.6825713776" lon="-2.1814729460"><ele>139.05</ele><time>2014-08-20T10:22:02Z</time></trkpt><trkpt lat="51.6825703718" lon="-2.1814736165"><ele>140.49</ele><time>2014-08-20T10:22:03Z</time></trkpt><trkpt lat="51.6825898178" lon="-2.1815036237"><ele>141.93</ele><time>2014-08-20T10:22:24Z</time></trkpt><trkpt lat="51.6825885605" lon="-2.1815332118"><ele>140.49</ele><time>2014-08-20T10:22:29Z</time></trkpt><trkpt lat="51.6826173943" lon="-2.1816476248"><ele>143.85</ele><time>2014-08-20T10:22:39Z</time></trkpt><trkpt lat="51.6826338228" lon="-2.1816933900"><ele>140.49</ele><time>2014-08-20T10:22:44Z</time></trkpt><trkpt lat="51.6826368403" lon="-2.1818157658"><ele>144.82</ele><time>2014-08-20T10:23:02Z</time></trkpt><trkpt lat="51.6826406121" lon="-2.1818250697"><ele>144.82</ele><time>2014-08-20T10:23:03Z</time></trkpt><trkpt lat="51.6826494131" lon="-2.1818481199"><ele>141.45</ele><time>2014-08-20T10:23:05Z</time></trkpt><trkpt lat="51.6826541908" lon="-2.1818603575"><ele>144.82</ele><time>2014-08-20T10:23:06Z</time></trkpt><trkpt lat="51.6827817634" lon="-2.1820788737"><ele>146.26</ele><time>2014-08-20T10:23:26Z</time></trkpt><trkpt lat="51.6829051450" lon="-2.1823284030"><ele>148.18</ele><time>2014-08-20T10:23:44Z</time></trkpt><trkpt lat="51.6829131916" lon="-2.1823351923"><ele>146.26</ele><time>2014-08-20T10:23:45Z</time></trkpt><trkpt lat="51.6829901375" lon="-2.1823798679"><ele>147.22</ele><time>2014-08-20T10:23:51Z</time></trkpt><trkpt lat="51.6831485555" lon="-2.1824589930"><ele>147.70</ele><time>2014-08-20T10:24:06Z</time></trkpt><trkpt lat="51.6831969190" lon="-2.1824033372"><ele>142.41</ele><time>2014-08-20T10:24:10Z</time></trkpt><trkpt lat="51.6832112521" lon="-2.1823942848"><ele>148.18</ele><time>2014-08-20T10:24:11Z</time></trkpt><trkpt lat="51.6834571771" lon="-2.1825204324"><ele>147.22</ele><time>2014-08-20T10:24:28Z</time></trkpt><trkpt lat="51.6835113242" lon="-2.1826174948"><ele>150.58</ele><time>2014-08-20T10:24:34Z</time></trkpt><trkpt lat="51.6835281719" lon="-2.1826388687"><ele>150.10</ele><time>2014-08-20T10:24:37Z</time></trkpt><trkpt lat="51.6834896989" lon="-2.1827412955"><ele>150.58</ele><time>2014-08-20T10:24:47Z</time></trkpt><trkpt lat="51.6834099032" lon="-2.1827786788"><ele>150.58</ele><time>2014-08-20T10:25:09Z</time></trkpt><trkpt lat="51.6832739487" lon="-2.1828694548"><ele>151.06</ele><time>2014-08-20T10:25:30Z</time></trkpt><trkpt lat="51.6832270939" lon="-2.1829189919"><ele>145.78</ele><time>2014-08-20T10:25:35Z</time></trkpt><trkpt lat="51.6832263395" lon="-2.1829221770"><ele>154.91</ele><time>2014-08-20T10:25:36Z</time></trkpt><trkpt lat="51.6832141858" lon="-2.1829267032"><ele>151.06</ele><time>2014-08-20T10:25:37Z</time></trkpt><trkpt lat="51.6827722918" lon="-2.1831319761"><ele>150.58</ele><time>2014-08-20T10:26:04Z</time></trkpt><trkpt lat="51.6827574559" lon="-2.1831797529"><ele>151.06</ele><time>2014-08-20T10:26:27Z</time></trkpt><trkpt lat="51.6827689391" lon="-2.1831123624"><ele>147.70</ele><time>2014-08-20T10:26:43Z</time></trkpt><trkpt lat="51.6827706154" lon="-2.1831166372"><ele>152.99</ele><time>2014-08-20T10:26:44Z</time></trkpt><trkpt lat="51.6829241719" lon="-2.1836260054"><ele>154.43</ele><time>2014-08-20T10:27:04Z</time></trkpt><trkpt lat="51.6829576995" lon="-2.1836243290"><ele>154.43</ele><time>2014-08-20T10:27:21Z</time></trkpt><trkpt lat="51.6830533370" lon="-2.1838879399"><ele>155.87</ele><time>2014-08-20T10:27:37Z</time></trkpt><trkpt lat="51.6831577756" lon="-2.1841480304"><ele>158.75</ele><time>2014-08-20T10:27:54Z</time></trkpt><trkpt lat="51.6832317039" lon="-2.1843808796"><ele>159.72</ele><time>2014-08-20T10:28:09Z</time></trkpt><trkpt lat="51.6832592804" lon="-2.1845469251"><ele>161.16</ele><time>2014-08-20T10:28:27Z</time></trkpt><trkpt lat="51.6832899582" lon="-2.1847685426"><ele>163.08</ele><time>2014-08-20T10:28:46Z</time></trkpt><trkpt lat="51.6833094042" lon="-2.1849944349"><ele>163.56</ele><time>2014-08-20T10:29:02Z</time></trkpt><trkpt lat="51.6833569296" lon="-2.1852216683"><ele>164.04</ele><time>2014-08-20T10:29:23Z</time></trkpt><trkpt lat="51.6834642179" lon="-2.1854826808"><ele>165.48</ele><time>2014-08-20T10:29:43Z</time></trkpt><trkpt lat="51.6835424211" lon="-2.1857809089"><ele>166.45</ele><time>2014-08-20T10:30:06Z</time></trkpt><trkpt lat="51.6835976578" lon="-2.1859915461"><ele>166.45</ele><time>2014-08-20T10:30:25Z</time></trkpt><trkpt lat="51.6836295929" lon="-2.1860778797"><ele>167.41</ele><time>2014-08-20T10:30:44Z</time></trkpt><trkpt lat="51.6836637910" lon="-2.1863848250"><ele>167.41</ele><time>2014-08-20T10:31:05Z</time></trkpt><trkpt lat="51.6836685687" lon="-2.1864065342"><ele>167.41</ele><time>2014-08-20T10:31:06Z</time></trkpt><trkpt lat="51.6836803034" lon="-2.1865803748"><ele>168.37</ele><time>2014-08-20T10:31:16Z</time></trkpt><trkpt lat="51.6837108135" lon="-2.1867109649"><ele>167.89</ele><time>2014-08-20T10:31:27Z</time></trkpt><trkpt lat="51.6836721729" lon="-2.1868501883"><ele>168.37</ele><time>2014-08-20T10:31:34Z</time></trkpt><trkpt lat="51.6836554091" lon="-2.1870059241"><ele>167.89</ele><time>2014-08-20T10:31:52Z</time></trkpt><trkpt lat="51.6836735979" lon="-2.1870757453"><ele>167.89</ele><time>2014-08-20T10:32:14Z</time></trkpt><trkpt lat="51.6836661380" lon="-2.1870625019"><ele>167.89</ele><time>2014-08-20T10:32:37Z</time></trkpt><trkpt lat="51.6836554930" lon="-2.1870433073"><ele>167.41</ele><time>2014-08-20T10:33:02Z</time></trkpt><trkpt lat="51.6836299282" lon="-2.1869462449"><ele>167.41</ele><time>2014-08-20T10:33:22Z</time></trkpt><trkpt lat="51.6836229712" lon="-2.1869910881"><ele>167.89</ele><time>2014-08-20T10:33:49Z</time></trkpt><trkpt lat="51.6836255696" lon="-2.1870557126"><ele>168.85</ele><time>2014-08-20T10:33:54Z</time></trkpt><trkpt lat="51.6836450156" lon="-2.1871238574"><ele>167.41</ele><time>2014-08-20T10:33:57Z</time></trkpt><trkpt lat="51.6836429201" lon="-2.1873156354"><ele>168.37</ele><time>2014-08-20T10:34:06Z</time></trkpt><trkpt lat="51.6836688202" lon="-2.1875194833"><ele>165.00</ele><time>2014-08-20T10:34:15Z</time></trkpt><trkpt lat="51.6836712509" lon="-2.1875448804"><ele>168.37</ele><time>2014-08-20T10:34:16Z</time></trkpt><trkpt lat="51.6836757772" lon="-2.1876074933"><ele>168.85</ele><time>2014-08-20T10:34:18Z</time></trkpt><trkpt lat="51.6836838238" lon="-2.1877586190"><ele>166.45</ele><time>2014-08-20T10:34:26Z</time></trkpt><trkpt lat="51.6836869251" lon="-2.1878002770"><ele>169.33</ele><time>2014-08-20T10:34:29Z</time></trkpt><trkpt lat="51.6837295890" lon="-2.1881758701"><ele>168.85</ele><time>2014-08-20T10:34:48Z</time></trkpt><trkpt lat="51.6837321874" lon="-2.1881882753"><ele>169.81</ele><time>2014-08-20T10:34:56Z</time></trkpt><trkpt lat="51.6837649606" lon="-2.1883562487"><ele>169.33</ele><time>2014-08-20T10:35:04Z</time></trkpt><trkpt lat="51.6838368773" lon="-2.1886873338"><ele>168.85</ele><time>2014-08-20T10:35:26Z</time></trkpt><trkpt lat="51.6838181857" lon="-2.1887408104"><ele>169.33</ele><time>2014-08-20T10:35:47Z</time></trkpt><trkpt lat="51.6838447563" lon="-2.1888766810"><ele>165.96</ele><time>2014-08-20T10:35:55Z</time></trkpt><trkpt lat="51.6838397272" lon="-2.1889260504"><ele>169.33</ele><time>2014-08-20T10:35:58Z</time></trkpt><trkpt lat="51.6838259809" lon="-2.1889422275"><ele>165.96</ele><time>2014-08-20T10:36:00Z</time></trkpt><trkpt lat="51.6838217061" lon="-2.1889490169"><ele>169.33</ele><time>2014-08-20T10:36:01Z</time></trkpt><trkpt lat="51.6838007513" lon="-2.1892305650"><ele>169.81</ele><time>2014-08-20T10:36:21Z</time></trkpt><trkpt lat="51.6838009190" lon="-2.1894817706"><ele>168.37</ele><time>2014-08-20T10:36:37Z</time></trkpt><trkpt lat="51.6837984044" lon="-2.1895246860"><ele>165.96</ele><time>2014-08-20T10:36:39Z</time></trkpt><trkpt lat="51.6837966442" lon="-2.1895410307"><ele>169.33</ele><time>2014-08-20T10:36:40Z</time></trkpt><trkpt lat="51.6838162579" lon="-2.1896293759"><ele>170.29</ele><time>2014-08-20T10:36:47Z</time></trkpt><trkpt lat="51.6838185210" lon="-2.1896506660"><ele>166.45</ele><time>2014-08-20T10:36:49Z</time></trkpt><trkpt lat="51.6838201135" lon="-2.1896576229"><ele>167.89</ele><time>2014-08-20T10:36:50Z</time></trkpt><trkpt lat="51.6838376317" lon="-2.1897836868"><ele>169.33</ele><time>2014-08-20T10:37:00Z</time></trkpt><trkpt lat="51.6838786192" lon="-2.1901240759"><ele>170.77</ele><time>2014-08-20T10:37:23Z</time></trkpt><trkpt lat="51.6839182656" lon="-2.1902783867"><ele>167.41</ele><time>2014-08-20T10:37:39Z</time></trkpt><trkpt lat="51.6839212831" lon="-2.1902775485"><ele>170.77</ele><time>2014-08-20T10:37:42Z</time></trkpt><trkpt lat="51.6838993225" lon="-2.1903453581"><ele>171.25</ele><time>2014-08-20T10:37:51Z</time></trkpt><trkpt lat="51.6839310061" lon="-2.1904085577"><ele>170.29</ele><time>2014-08-20T10:38:10Z</time></trkpt><trkpt lat="51.6839289945" lon="-2.1903913748"><ele>171.25</ele><time>2014-08-20T10:38:26Z</time></trkpt><trkpt lat="51.6839318443" lon="-2.1903961524"><ele>167.41</ele><time>2014-08-20T10:38:27Z</time></trkpt><trkpt lat="51.6839350294" lon="-2.1904022712"><ele>171.25</ele><time>2014-08-20T10:38:28Z</time></trkpt><trkpt lat="51.6839447524" lon="-2.1904265787"><ele>169.81</ele><time>2014-08-20T10:38:31Z</time></trkpt><trkpt lat="51.6839900985" lon="-2.1905623656"><ele>171.25</ele><time>2014-08-20T10:38:40Z</time></trkpt><trkpt lat="51.6840493586" lon="-2.1908481047"><ele>169.33</ele><time>2014-08-20T10:38:55Z</time></trkpt><trkpt lat="51.6840626858" lon="-2.1909014136"><ele>173.17</ele><time>2014-08-20T10:38:58Z</time></trkpt><trkpt lat="51.6840725765" lon="-2.1909438260"><ele>168.37</ele><time>2014-08-20T10:39:00Z</time></trkpt><trkpt lat="51.6840787791" lon="-2.1909610089"><ele>171.25</ele><time>2014-08-20T10:39:01Z</time></trkpt><trkpt lat="51.6841043439" lon="-2.1910562273"><ele>172.21</ele><time>2014-08-20T10:39:07Z</time></trkpt><trkpt lat="51.6841364466" lon="-2.1912199259"><ele>166.45</ele><time>2014-08-20T10:39:19Z</time></trkpt><trkpt lat="51.6841377877" lon="-2.1912320796"><ele>172.69</ele><time>2014-08-20T10:39:20Z</time></trkpt><trkpt lat="51.6841360275" lon="-2.1912665293"><ele>171.73</ele><time>2014-08-20T10:39:40Z</time></trkpt><trkpt lat="51.6840746719" lon="-2.1912307385"><ele>172.21</ele><time>2014-08-20T10:40:03Z</time></trkpt><trkpt lat="51.6840608418" lon="-2.1913076006"><ele>175.10</ele><time>2014-08-20T10:40:13Z</time></trkpt><trkpt lat="51.6840746719" lon="-2.1913304832"><ele>171.25</ele><time>2014-08-20T10:40:14Z</time></trkpt><trkpt lat="51.6841603350" lon="-2.1914510150"><ele>175.10</ele><time>2014-08-20T10:40:27Z</time></trkpt><trkpt lat="51.6841756739" lon="-2.1914724726"><ele>169.81</ele><time>2014-08-20T10:40:29Z</time></trkpt><trkpt lat="51.6841902584" lon="-2.1915026475"><ele>173.66</ele><time>2014-08-20T10:40:31Z</time></trkpt><trkpt lat="51.6842372809" lon="-2.1915908251"><ele>173.66</ele><time>2014-08-20T10:40:39Z</time></trkpt><trkpt lat="51.6842454113" lon="-2.1916264482"><ele>169.81</ele><time>2014-08-20T10:40:42Z</time></trkpt><trkpt lat="51.6842502728" lon="-2.1916427929"><ele>173.66</ele><time>2014-08-20T10:40:43Z</time></trkpt><trkpt lat="51.6842764243" lon="-2.1917387657"><ele>170.29</ele><time>2014-08-20T10:40:48Z</time></trkpt><trkpt lat="51.6842988040" lon="-2.1917996183"><ele>173.66</ele><time>2014-08-20T10:40:52Z</time></trkpt><trkpt lat="51.6843330860" lon="-2.1918952558"><ele>174.14</ele><time>2014-08-20T10:40:58Z</time></trkpt><trkpt lat="51.6844319087" lon="-2.1922633052"><ele>172.69</ele><time>2014-08-20T10:41:19Z</time></trkpt><trkpt lat="51.6844444815" lon="-2.1923077293"><ele>174.62</ele><time>2014-08-20T10:41:21Z</time></trkpt><trkpt lat="51.6844723932" lon="-2.1924259141"><ele>171.25</ele><time>2014-08-20T10:41:27Z</time></trkpt><trkpt lat="51.6844765004" lon="-2.1924493834"><ele>172.21</ele><time>2014-08-20T10:41:28Z</time></trkpt><trkpt lat="51.6844869778" lon="-2.1924917959"><ele>174.62</ele><time>2014-08-20T10:41:30Z</time></trkpt><trkpt lat="51.6845081002" lon="-2.1925846674"><ele>175.10</ele><time>2014-08-20T10:41:36Z</time></trkpt><trkpt lat="51.6845179908" lon="-2.1926761977"><ele>171.73</ele><time>2014-08-20T10:41:42Z</time></trkpt><trkpt lat="51.6845170688" lon="-2.1926927101"><ele>175.10</ele><time>2014-08-20T10:41:43Z</time></trkpt><trkpt lat="51.6845131293" lon="-2.1929799579"><ele>175.10</ele><time>2014-08-20T10:41:56Z</time></trkpt><trkpt lat="51.6845200863" lon="-2.1930144913"><ele>176.06</ele><time>2014-08-20T10:41:58Z</time></trkpt><trkpt lat="51.6845396161" lon="-2.1930845641"><ele>173.66</ele><time>2014-08-20T10:42:02Z</time></trkpt><trkpt lat="51.6845474113" lon="-2.1931289043"><ele>176.06</ele><time>2014-08-20T10:42:05Z</time></trkpt><trkpt lat="51.6845465731" lon="-2.1931620128"><ele>172.21</ele><time>2014-08-20T10:42:07Z</time></trkpt><trkpt lat="51.6845468245" lon="-2.1931794472"><ele>175.58</ele><time>2014-08-20T10:42:08Z</time></trkpt><trkpt lat="51.6845644265" lon="-2.1933104564"><ele>174.14</ele><time>2014-08-20T10:42:17Z</time></trkpt><trkpt lat="51.6845653486" lon="-2.1933559701"><ele>177.50</ele><time>2014-08-20T10:42:20Z</time></trkpt><trkpt lat="51.6845654324" lon="-2.1933739074"><ele>174.62</ele><time>2014-08-20T10:42:21Z</time></trkpt><trkpt lat="51.6845782567" lon="-2.1936152223"><ele>176.06</ele><time>2014-08-20T10:42:42Z</time></trkpt><trkpt lat="51.6846240219" lon="-2.1939579584"><ele>176.06</ele><time>2014-08-20T10:43:05Z</time></trkpt><trkpt lat="51.6846269555" lon="-2.1941495687"><ele>172.69</ele><time>2014-08-20T10:43:19Z</time></trkpt><trkpt lat="51.6846282966" lon="-2.1941731218"><ele>177.50</ele><time>2014-08-20T10:43:20Z</time></trkpt><trkpt lat="51.6846313141" lon="-2.1941907238"><ele>177.02</ele><time>2014-08-20T10:43:21Z</time></trkpt><trkpt lat="51.6846743133" lon="-2.1943640616"><ele>177.98</ele><time>2014-08-20T10:43:34Z</time></trkpt><trkpt lat="51.6846750677" lon="-2.1943799872"><ele>169.33</ele><time>2014-08-20T10:43:35Z</time></trkpt><trkpt lat="51.6846746486" lon="-2.1943990141"><ele>178.94</ele><time>2014-08-20T10:43:36Z</time></trkpt><trkpt lat="51.6846699547" lon="-2.1944921371"><ele>175.58</ele><time>2014-08-20T10:43:42Z</time></trkpt><trkpt lat="51.6846716311" lon="-2.1945099067"><ele>176.06</ele><time>2014-08-20T10:43:43Z</time></trkpt><trkpt lat="51.6846775822" lon="-2.1945445240"><ele>178.46</ele><time>2014-08-20T10:43:45Z</time></trkpt><trkpt lat="51.6846902389" lon="-2.1947401576"><ele>177.98</ele><time>2014-08-20T10:43:57Z</time></trkpt><trkpt lat="51.6846945975" lon="-2.1947681531"><ele>178.94</ele><time>2014-08-20T10:43:59Z</time></trkpt><trkpt lat="51.6846971121" lon="-2.1947810613"><ele>175.58</ele><time>2014-08-20T10:44:00Z</time></trkpt><trkpt lat="51.6847013868" lon="-2.1948686522"><ele>178.94</ele><time>2014-08-20T10:44:07Z</time></trkpt><trkpt lat="51.6847091820" lon="-2.1949453466"><ele>177.02</ele><time>2014-08-20T10:44:13Z</time></trkpt><trkpt lat="51.6847184021" lon="-2.1950948797"><ele>178.94</ele><time>2014-08-20T10:44:23Z</time></trkpt><trkpt lat="51.6847173125" lon="-2.1951563191"><ele>178.94</ele><time>2014-08-20T10:44:29Z</time></trkpt><trkpt lat="51.6847315617" lon="-2.1951890085"><ele>176.06</ele><time>2014-08-20T10:44:32Z</time></trkpt><trkpt lat="51.6847466491" lon="-2.1952126455"><ele>178.94</ele><time>2014-08-20T10:44:34Z</time></trkpt><trkpt lat="51.6847681906" lon="-2.1954439860"><ele>178.46</ele><time>2014-08-20T10:44:49Z</time></trkpt><trkpt lat="51.6847666819" lon="-2.1954666171"><ele>175.10</ele><time>2014-08-20T10:44:51Z</time></trkpt><trkpt lat="51.6847679392" lon="-2.1954786871"><ele>178.94</ele><time>2014-08-20T10:44:52Z</time></trkpt><trkpt lat="51.6847707890" lon="-2.1954892483"><ele>182.79</ele><time>2014-08-20T10:44:53Z</time></trkpt><trkpt lat="51.6847728007" lon="-2.1954998095"><ele>175.58</ele><time>2014-08-20T10:44:54Z</time></trkpt><trkpt lat="51.6847735550" lon="-2.1955128014"><ele>178.94</ele><time>2014-08-20T10:44:55Z</time></trkpt><trkpt lat="51.6847857926" lon="-2.1955905855"><ele>178.94</ele><time>2014-08-20T10:45:00Z</time></trkpt><trkpt lat="51.6847946774" lon="-2.1956252027"><ele>176.06</ele><time>2014-08-20T10:45:02Z</time></trkpt><trkpt lat="51.6847966891" lon="-2.1956355125"><ele>179.42</ele><time>2014-08-20T10:45:03Z</time></trkpt><trkpt lat="51.6847981140" lon="-2.1956447326"><ele>186.15</ele><time>2014-08-20T10:45:04Z</time></trkpt><trkpt lat="51.6848003771" lon="-2.1956573892"><ele>175.10</ele><time>2014-08-20T10:45:05Z</time></trkpt><trkpt lat="51.6848043166" lon="-2.1956739016"><ele>180.38</ele><time>2014-08-20T10:45:06Z</time></trkpt><trkpt lat="51.6848105192" lon="-2.1957217623"><ele>172.21</ele><time>2014-08-20T10:45:09Z</time></trkpt><trkpt lat="51.6848089267" lon="-2.1958063357"><ele>176.54</ele><time>2014-08-20T10:45:14Z</time></trkpt><trkpt lat="51.6848072503" lon="-2.1958248597"><ele>179.90</ele><time>2014-08-20T10:45:15Z</time></trkpt><trkpt lat="51.6848075017" lon="-2.1958688647"><ele>178.94</ele><time>2014-08-20T10:45:18Z</time></trkpt><trkpt lat="51.6848121956" lon="-2.1959350817"><ele>182.79</ele><time>2014-08-20T10:45:24Z</time></trkpt><trkpt lat="51.6848132014" lon="-2.1959389374"><ele>177.50</ele><time>2014-08-20T10:45:25Z</time></trkpt><trkpt lat="51.6848152969" lon="-2.1959450562"><ele>177.98</ele><time>2014-08-20T10:45:26Z</time></trkpt><trkpt lat="51.6848161351" lon="-2.1959684417"><ele>178.94</ele><time>2014-08-20T10:45:28Z</time></trkpt><trkpt lat="51.6848268639" lon="-2.1960642468"><ele>183.27</ele><time>2014-08-20T10:45:34Z</time></trkpt><trkpt lat="51.6848262772" lon="-2.1960745566"><ele>177.98</ele><time>2014-08-20T10:45:35Z</time></trkpt><trkpt lat="51.6848235950" lon="-2.1961180586"><ele>185.19</ele><time>2014-08-20T10:45:39Z</time></trkpt><trkpt lat="51.6848177277" lon="-2.1961225849"><ele>178.46</ele><time>2014-08-20T10:45:40Z</time></trkpt><trkpt lat="51.6848009638" lon="-2.1961812582"><ele>183.27</ele><time>2014-08-20T10:45:46Z</time></trkpt><trkpt lat="51.6847994551" lon="-2.1961912327"><ele>177.02</ele><time>2014-08-20T10:45:47Z</time></trkpt><trkpt lat="51.6847989522" lon="-2.1962438710"><ele>180.87</ele><time>2014-08-20T10:45:51Z</time></trkpt><trkpt lat="51.6848008800" lon="-2.1963043883"><ele>177.02</ele><time>2014-08-20T10:45:56Z</time></trkpt><trkpt lat="51.6848002095" lon="-2.1963267680"><ele>179.90</ele><time>2014-08-20T10:45:58Z</time></trkpt><trkpt lat="51.6848271154" lon="-2.1964840125"><ele>173.66</ele><time>2014-08-20T10:46:08Z</time></trkpt><trkpt lat="51.6848256905" lon="-2.1965001058"><ele>179.90</ele><time>2014-08-20T10:46:09Z</time></trkpt><trkpt lat="51.6848395206" lon="-2.1966539137"><ele>178.94</ele><time>2014-08-20T10:46:26Z</time></trkpt><trkpt lat="51.6849167179" lon="-2.1968959831"><ele>180.38</ele><time>2014-08-20T10:46:47Z</time></trkpt><trkpt lat="51.6849328950" lon="-2.1971497871"><ele>178.94</ele><time>2014-08-20T10:47:06Z</time></trkpt><trkpt lat="51.6849421151" lon="-2.1971704904"><ele>182.31</ele><time>2014-08-20T10:47:08Z</time></trkpt><trkpt lat="51.6849585436" lon="-2.1972196922"><ele>178.94</ele><time>2014-08-20T10:47:12Z</time></trkpt><trkpt lat="51.6849686857" lon="-2.1973006614"><ele>174.62</ele><time>2014-08-20T10:47:21Z</time></trkpt><trkpt lat="51.6849679314" lon="-2.1973040141"><ele>189.04</ele><time>2014-08-20T10:47:22Z</time></trkpt><trkpt lat="51.6849682666" lon="-2.1973035112"><ele>180.87</ele><time>2014-08-20T10:47:23Z</time></trkpt><trkpt lat="51.6849938314" lon="-2.1973382961"><ele>180.38</ele><time>2014-08-20T10:47:44Z</time></trkpt><trkpt lat="51.6849959269" lon="-2.1973837260"><ele>180.87</ele><time>2014-08-20T10:47:46Z</time></trkpt><trkpt lat="51.6850313824" lon="-2.1976150665"><ele>180.87</ele><time>2014-08-20T10:48:07Z</time></trkpt><trkpt lat="51.6850471403" lon="-2.1979243588"><ele>182.31</ele><time>2014-08-20T10:48:27Z</time></trkpt><trkpt lat="51.6850493196" lon="-2.1979341656"><ele>179.42</ele><time>2014-08-20T10:48:28Z</time></trkpt><trkpt lat="51.6850557737" lon="-2.1979546174"><ele>182.31</ele><time>2014-08-20T10:48:30Z</time></trkpt><trkpt lat="51.6851618886" lon="-2.1982777398"><ele>182.31</ele><time>2014-08-20T10:48:51Z</time></trkpt><trkpt lat="51.6851600446" lon="-2.1984078269"><ele>183.75</ele><time>2014-08-20T10:49:09Z</time></trkpt><trkpt lat="51.6851710249" lon="-2.1984944120"><ele>179.90</ele><time>2014-08-20T10:49:14Z</time></trkpt><trkpt lat="51.6851723660" lon="-2.1985195577"><ele>183.27</ele><time>2014-08-20T10:49:15Z</time></trkpt><trkpt lat="51.6852047201" lon="-2.1985530015"><ele>184.71</ele><time>2014-08-20T10:49:23Z</time></trkpt><trkpt lat="51.6852302011" lon="-2.1985690109"><ele>183.27</ele><time>2014-08-20T10:49:45Z</time></trkpt><trkpt lat="51.6852246691" lon="-2.1985708550"><ele>178.94</ele><time>2014-08-20T10:49:58Z</time></trkpt><trkpt lat="51.6852072347" lon="-2.1985815000"><ele>182.31</ele><time>2014-08-20T10:50:01Z</time></trkpt><trkpt lat="51.6852104198" lon="-2.1985948272"><ele>183.27</ele><time>2014-08-20T10:50:03Z</time></trkpt><trkpt lat="51.6852339730" lon="-2.1986525785"><ele>179.90</ele><time>2014-08-20T10:50:16Z</time></trkpt><trkpt lat="51.6852197237" lon="-2.1986438613"><ele>183.27</ele><time>2014-08-20T10:50:17Z</time></trkpt><trkpt lat="51.6851986852" lon="-2.1986601222"><ele>185.19</ele><time>2014-08-20T10:50:20Z</time></trkpt><trkpt lat="51.6851897165" lon="-2.1986874472"><ele>181.35</ele><time>2014-08-20T10:50:22Z</time></trkpt><trkpt lat="51.6851826757" lon="-2.1987301111"><ele>184.71</ele><time>2014-08-20T10:50:25Z</time></trkpt><trkpt lat="51.6852493957" lon="-2.1989404131"><ele>181.83</ele><time>2014-08-20T10:50:41Z</time></trkpt><trkpt lat="51.6852509044" lon="-2.1989531536"><ele>184.23</ele><time>2014-08-20T10:50:42Z</time></trkpt><trkpt lat="51.6852525808" lon="-2.1989678219"><ele>185.19</ele><time>2014-08-20T10:50:43Z</time></trkpt><trkpt lat="51.6852545924" lon="-2.1990006790"><ele>181.83</ele><time>2014-08-20T10:50:45Z</time></trkpt><trkpt lat="51.6852586158" lon="-2.1990392357"><ele>184.71</ele><time>2014-08-20T10:50:47Z</time></trkpt><trkpt lat="51.6852613818" lon="-2.1990570053"><ele>185.67</ele><time>2014-08-20T10:50:48Z</time></trkpt><trkpt lat="51.6852695122" lon="-2.1990880184"><ele>182.31</ele><time>2014-08-20T10:50:50Z</time></trkpt><trkpt lat="51.6853058059" lon="-2.1991632879"><ele>185.67</ele><time>2014-08-20T10:50:55Z</time></trkpt><trkpt lat="51.6853723582" lon="-2.1993131563"><ele>184.71</ele><time>2014-08-20T10:51:19Z</time></trkpt><trkpt lat="51.6853580251" lon="-2.1994356997"><ele>182.31</ele><time>2014-08-20T10:51:38Z</time></trkpt><trkpt lat="51.6853557620" lon="-2.1994482726"><ele>188.08</ele><time>2014-08-20T10:51:39Z</time></trkpt><trkpt lat="51.6853448655" lon="-2.1994730830"><ele>185.67</ele><time>2014-08-20T10:51:40Z</time></trkpt><trkpt lat="51.6853323765" lon="-2.1995203570"><ele>179.90</ele><time>2014-08-20T10:51:43Z</time></trkpt><trkpt lat="51.6853318736" lon="-2.1995330974"><ele>185.19</ele><time>2014-08-20T10:51:44Z</time></trkpt><trkpt lat="51.6854153574" lon="-2.1997470036"><ele>184.71</ele><time>2014-08-20T10:52:04Z</time></trkpt><trkpt lat="51.6854354739" lon="-2.1997710597"><ele>184.23</ele><time>2014-08-20T10:52:08Z</time></trkpt><trkpt lat="51.6856053751" lon="-2.1999668609"><ele>186.63</ele><time>2014-08-20T10:52:30Z</time></trkpt><trkpt lat="51.6856029443" lon="-2.1999755781"><ele>183.27</ele><time>2014-08-20T10:52:31Z</time></trkpt><trkpt lat="51.6855867673" lon="-2.1999870613"><ele>188.08</ele><time>2014-08-20T10:52:41Z</time></trkpt><trkpt lat="51.6855849233" lon="-2.1999865584"><ele>184.23</ele><time>2014-08-20T10:52:42Z</time></trkpt><trkpt lat="51.6855847556" lon="-2.1999856364"><ele>185.67</ele><time>2014-08-20T10:52:43Z</time></trkpt><trkpt lat="51.6855870187" lon="-2.1999768354"><ele>187.59</ele><time>2014-08-20T10:52:44Z</time></trkpt><trkpt lat="51.6855894495" lon="-2.1999699622"><ele>182.79</ele><time>2014-08-20T10:52:45Z</time></trkpt><trkpt lat="51.6855907068" lon="-2.1999675315"><ele>187.59</ele><time>2014-08-20T10:52:46Z</time></trkpt><trkpt lat="51.6855530720" lon="-2.2000076808"><ele>184.71</ele><time>2014-08-20T10:52:54Z</time></trkpt><trkpt lat="51.6855474561" lon="-2.2000268754"><ele>184.71</ele><time>2014-08-20T10:52:56Z</time></trkpt><trkpt lat="51.6853723582" lon="-2.2003348265"><ele>186.63</ele><time>2014-08-20T10:53:18Z</time></trkpt><trkpt lat="51.6853171214" lon="-2.2004173882"><ele>188.56</ele><time>2014-08-20T10:53:26Z</time></trkpt><trkpt lat="51.6853099968" lon="-2.2004279494"><ele>186.63</ele><time>2014-08-20T10:53:27Z</time></trkpt><trkpt lat="51.6852109227" lon="-2.2005759738"><ele>185.67</ele><time>2014-08-20T10:53:41Z</time></trkpt></trkseg><trkseg><trkpt lat="51.6856340412" lon="-2.2022983711"><ele>189.04</ele><time>2014-08-20T10:55:35Z</time></trkpt><trkpt lat="51.6856970731" lon="-2.2023330722"><ele>187.59</ele><time>2014-08-20T10:55:37Z</time></trkpt><trkpt lat="51.6859597620" lon="-2.2025839426"><ele>188.56</ele><time>2014-08-20T10:55:57Z</time></trkpt><trkpt lat="51.6860888433" lon="-2.2027979326"><ele>188.08</ele><time>2014-08-20T10:56:19Z</time></trkpt><trkpt lat="51.6861113906" lon="-2.2028598748"><ele>184.71</ele><time>2014-08-20T10:56:23Z</time></trkpt><trkpt lat="51.6861168388" lon="-2.2028762195"><ele>188.56</ele><time>2014-08-20T10:56:24Z</time></trkpt><trkpt lat="51.6861487739" lon="-2.2029889561"><ele>188.56</ele><time>2014-08-20T10:56:32Z</time></trkpt><trkpt lat="51.6862447467" lon="-2.2033712547"><ele>188.56</ele><time>2014-08-20T10:56:55Z</time></trkpt><trkpt lat="51.6862710658" lon="-2.2033954784"><ele>191.92</ele><time>2014-08-20T10:56:59Z</time></trkpt><trkpt lat="51.6862744186" lon="-2.2034043632"><ele>188.56</ele><time>2014-08-20T10:57:00Z</time></trkpt><trkpt lat="51.6862289049" lon="-2.2036962211"><ele>189.04</ele><time>2014-08-20T10:57:24Z</time></trkpt><trkpt lat="51.6862424836" lon="-2.2039602511"><ele>188.56</ele><time>2014-08-20T10:57:44Z</time></trkpt><trkpt lat="51.6862527095" lon="-2.2041936032"><ele>189.04</ele><time>2014-08-20T10:58:05Z</time></trkpt><trkpt lat="51.6861098818" lon="-2.2042007279"><ele>189.04</ele><time>2014-08-20T10:58:29Z</time></trkpt><trkpt lat="51.6862023342" lon="-2.2042979579"><ele>188.56</ele><time>2014-08-20T10:58:48Z</time></trkpt><trkpt lat="51.6861766856" lon="-2.2046941705"><ele>188.56</ele><time>2014-08-20T10:59:10Z</time></trkpt><trkpt lat="51.6861779429" lon="-2.2047211602"><ele>189.52</ele><time>2014-08-20T10:59:12Z</time></trkpt><trkpt lat="51.6861753445" lon="-2.2047427855"><ele>189.04</ele><time>2014-08-20T10:59:14Z</time></trkpt><trkpt lat="51.6861334350" lon="-2.2048524208"><ele>190.00</ele><time>2014-08-20T10:59:31Z</time></trkpt><trkpt lat="51.6861158330" lon="-2.2049994394"><ele>189.52</ele><time>2014-08-20T10:59:53Z</time></trkpt><trkpt lat="51.6859289166" lon="-2.2053037025"><ele>188.56</ele><time>2014-08-20T11:00:11Z</time></trkpt><trkpt lat="51.6859582532" lon="-2.2055292595"><ele>188.56</ele><time>2014-08-20T11:00:27Z</time></trkpt><trkpt lat="51.6859233845" lon="-2.2056723386"><ele>188.56</ele><time>2014-08-20T11:00:51Z</time></trkpt><trkpt lat="51.6859104764" lon="-2.2058264818"><ele>188.56</ele><time>2014-08-20T11:01:13Z</time></trkpt><trkpt lat="51.6859041061" lon="-2.2058761027"><ele>187.59</ele><time>2014-08-20T11:01:35Z</time></trkpt><trkpt lat="51.6858185269" lon="-2.2062418889"><ele>185.67</ele><time>2014-08-20T11:01:52Z</time></trkpt><trkpt lat="51.6857212968" lon="-2.2064576391"><ele>188.56</ele><time>2014-08-20T11:02:11Z</time></trkpt><trkpt lat="51.6857801378" lon="-2.2067278717"><ele>187.11</ele><time>2014-08-20T11:02:30Z</time></trkpt><trkpt lat="51.6857772041" lon="-2.2068557795"><ele>187.11</ele><time>2014-08-20T11:02:46Z</time></trkpt><trkpt lat="51.6857790481" lon="-2.2068711184"><ele>184.23</ele><time>2014-08-20T11:02:47Z</time></trkpt><trkpt lat="51.6857810598" lon="-2.2068887204"><ele>187.11</ele><time>2014-08-20T11:02:48Z</time></trkpt><trkpt lat="51.6857885197" lon="-2.2069755569"><ele>185.67</ele><time>2014-08-20T11:03:04Z</time></trkpt><trkpt lat="51.6858229693" lon="-2.2070221603"><ele>186.15</ele><time>2014-08-20T11:03:10Z</time></trkpt><trkpt lat="51.6858472768" lon="-2.2071104217"><ele>183.27</ele><time>2014-08-20T11:03:16Z</time></trkpt><trkpt lat="51.6858567484" lon="-2.2071473859"><ele>186.15</ele><time>2014-08-20T11:03:18Z</time></trkpt><trkpt lat="51.6858938802" lon="-2.2075088974"><ele>182.79</ele><time>2014-08-20T11:03:32Z</time></trkpt><trkpt lat="51.6859150026" lon="-2.2077233065"><ele>183.75</ele><time>2014-08-20T11:03:52Z</time></trkpt><trkpt lat="51.6859162599" lon="-2.2078613564"><ele>180.87</ele><time>2014-08-20T11:04:12Z</time></trkpt><trkpt lat="51.6859160922" lon="-2.2078975663"><ele>186.15</ele><time>2014-08-20T11:04:15Z</time></trkpt><trkpt lat="51.6859228816" lon="-2.2079645377"><ele>182.79</ele><time>2014-08-20T11:04:20Z</time></trkpt><trkpt lat="51.6859370470" lon="-2.2080898471"><ele>182.79</ele><time>2014-08-20T11:04:32Z</time></trkpt><trkpt lat="51.6860118974" lon="-2.2085021529"><ele>182.31</ele><time>2014-08-20T11:04:57Z</time></trkpt><trkpt lat="51.6860123165" lon="-2.2085008956"><ele>177.98</ele><time>2014-08-20T11:05:11Z</time></trkpt><trkpt lat="51.6860190220" lon="-2.2085092776"><ele>182.79</ele><time>2014-08-20T11:05:12Z</time></trkpt><trkpt lat="51.6860269848" lon="-2.2085226886"><ele>182.79</ele><time>2014-08-20T11:05:13Z</time></trkpt><trkpt lat="51.6860604286" lon="-2.2087091859"><ele>182.31</ele><time>2014-08-20T11:05:21Z</time></trkpt><trkpt lat="51.6860963032" lon="-2.2087629978"><ele>182.31</ele><time>2014-08-20T11:05:27Z</time></trkpt><trkpt lat="51.6861708183" lon="-2.2088852059"><ele>180.38</ele><time>2014-08-20T11:05:37Z</time></trkpt><trkpt lat="51.6861970536" lon="-2.2089338209"><ele>181.35</ele><time>2014-08-20T11:05:40Z</time></trkpt><trkpt lat="51.6862082854" lon="-2.2089525964"><ele>180.87</ele><time>2014-08-20T11:05:41Z</time></trkpt><trkpt lat="51.6862341855" lon="-2.2089791670"><ele>177.50</ele><time>2014-08-20T11:05:44Z</time></trkpt><trkpt lat="51.6862395499" lon="-2.2089975234"><ele>178.46</ele><time>2014-08-20T11:05:45Z</time></trkpt><trkpt lat="51.6862730775" lon="-2.2090461385"><ele>182.31</ele><time>2014-08-20T11:05:51Z</time></trkpt><trkpt lat="51.6862779390" lon="-2.2090546880"><ele>179.42</ele><time>2014-08-20T11:05:52Z</time></trkpt><trkpt lat="51.6862913501" lon="-2.2090775706"><ele>181.35</ele><time>2014-08-20T11:05:55Z</time></trkpt><trkpt lat="51.6862946190" lon="-2.2090872098"><ele>181.35</ele><time>2014-08-20T11:05:56Z</time></trkpt><trkpt lat="51.6863002349" lon="-2.2090961784"><ele>183.27</ele><time>2014-08-20T11:05:57Z</time></trkpt><trkpt lat="51.6863056831" lon="-2.2091098409"><ele>179.90</ele><time>2014-08-20T11:05:58Z</time></trkpt><trkpt lat="51.6863154061" lon="-2.2091552708"><ele>178.94</ele><time>2014-08-20T11:06:02Z</time></trkpt><trkpt lat="51.6863132268" lon="-2.2091827635"><ele>180.38</ele><time>2014-08-20T11:06:04Z</time></trkpt><trkpt lat="51.6863144003" lon="-2.2092251759"><ele>177.02</ele><time>2014-08-20T11:06:07Z</time></trkpt><trkpt lat="51.6863144003" lon="-2.2092420235"><ele>179.90</ele><time>2014-08-20T11:06:08Z</time></trkpt><trkpt lat="51.6863137297" lon="-2.2092600446"><ele>180.87</ele><time>2014-08-20T11:06:09Z</time></trkpt><trkpt lat="51.6863152385" lon="-2.2093888745"><ele>177.02</ele><time>2014-08-20T11:06:15Z</time></trkpt><trkpt lat="51.6863146517" lon="-2.2094063926"><ele>179.90</ele><time>2014-08-20T11:06:16Z</time></trkpt><trkpt lat="51.6862938646" lon="-2.2094777226"><ele>179.90</ele><time>2014-08-20T11:06:21Z</time></trkpt><trkpt lat="51.6862548050" lon="-2.2095720191"><ele>179.90</ele><time>2014-08-20T11:06:28Z</time></trkpt><trkpt lat="51.6863403004" lon="-2.2097272519"><ele>178.46</ele><time>2014-08-20T11:06:46Z</time></trkpt><trkpt lat="51.6863722354" lon="-2.2097783815"><ele>178.94</ele><time>2014-08-20T11:06:49Z</time></trkpt><trkpt lat="51.6864459962" lon="-2.2099625319"><ele>179.90</ele><time>2014-08-20T11:06:58Z</time></trkpt><trkpt lat="51.6864502709" lon="-2.2099734284"><ele>177.50</ele><time>2014-08-20T11:06:59Z</time></trkpt><trkpt lat="51.6864516959" lon="-2.2099775355"><ele>178.94</ele><time>2014-08-20T11:07:00Z</time></trkpt><trkpt lat="51.6865493450" lon="-2.2101885919"><ele>177.50</ele><time>2014-08-20T11:07:19Z</time></trkpt><trkpt lat="51.6865241993" lon="-2.2102861572"><ele>177.50</ele><time>2014-08-20T11:07:37Z</time></trkpt><trkpt lat="51.6865948588" lon="-2.2101363726"><ele>176.54</ele><time>2014-08-20T11:07:57Z</time></trkpt><trkpt lat="51.6866115388" lon="-2.2101090476"><ele>172.69</ele><time>2014-08-20T11:08:12Z</time></trkpt><trkpt lat="51.6866107006" lon="-2.2100996599"><ele>174.14</ele><time>2014-08-20T11:08:13Z</time></trkpt><trkpt lat="51.6867161449" lon="-2.2101996560"><ele>170.29</ele><time>2014-08-20T11:08:33Z</time></trkpt><trkpt lat="51.6867295559" lon="-2.2102189343"><ele>173.17</ele><time>2014-08-20T11:08:38Z</time></trkpt><trkpt lat="51.6867687833" lon="-2.2103729099"><ele>171.25</ele><time>2014-08-20T11:08:57Z</time></trkpt><trkpt lat="51.6870080866" lon="-2.2111536004"><ele>170.29</ele><time>2014-08-20T11:09:06Z</time></trkpt><trkpt lat="51.6872069053" lon="-2.2115545906"><ele>168.85</ele><time>2014-08-20T11:09:29Z</time></trkpt><trkpt lat="51.6873173788" lon="-2.2118766233"><ele>167.41</ele><time>2014-08-20T11:09:50Z</time></trkpt><trkpt lat="51.6873351485" lon="-2.2121509630"><ele>164.52</ele><time>2014-08-20T11:10:06Z</time></trkpt><trkpt lat="51.6873566061" lon="-2.2121844068"><ele>164.04</ele><time>2014-08-20T11:10:11Z</time></trkpt><trkpt lat="51.6874039639" lon="-2.2122502048"><ele>162.60</ele><time>2014-08-20T11:10:17Z</time></trkpt><trkpt lat="51.6875132639" lon="-2.2123087104"><ele>162.12</ele><time>2014-08-20T11:10:32Z</time></trkpt><trkpt lat="51.6876409203" lon="-2.2123072017"><ele>161.64</ele><time>2014-08-20T11:10:51Z</time></trkpt><trkpt lat="51.6876294371" lon="-2.2122894321"><ele>161.16</ele><time>2014-08-20T11:11:11Z</time></trkpt><trkpt lat="51.6877362225" lon="-2.2122728359"><ele>159.72</ele><time>2014-08-20T11:11:29Z</time></trkpt><trkpt lat="51.6878970712" lon="-2.2122783680"><ele>156.83</ele><time>2014-08-20T11:11:49Z</time></trkpt><trkpt lat="51.6879905295" lon="-2.2122823913"><ele>156.35</ele><time>2014-08-20T11:11:55Z</time></trkpt><trkpt lat="51.6881813854" lon="-2.2123112250"><ele>153.47</ele><time>2014-08-20T11:12:16Z</time></trkpt><trkpt lat="51.6883301642" lon="-2.2123190202"><ele>150.58</ele><time>2014-08-20T11:12:35Z</time></trkpt><trkpt lat="51.6883699782" lon="-2.2123395558"><ele>150.58</ele><time>2014-08-20T11:12:41Z</time></trkpt><trkpt lat="51.6885889973" lon="-2.2124051023"><ele>147.70</ele><time>2014-08-20T11:13:03Z</time></trkpt><trkpt lat="51.6887051705" lon="-2.2124356963"><ele>144.82</ele><time>2014-08-20T11:13:20Z</time></trkpt><trkpt lat="51.6888656002" lon="-2.2124977224"><ele>141.45</ele><time>2014-08-20T11:13:39Z</time></trkpt><trkpt lat="51.6889966931" lon="-2.2125767637"><ele>140.49</ele><time>2014-08-20T11:13:54Z</time></trkpt><trkpt lat="51.6891225055" lon="-2.2126447409"><ele>138.57</ele><time>2014-08-20T11:14:12Z</time></trkpt><trkpt lat="51.6892903950" lon="-2.2127276380"><ele>136.16</ele><time>2014-08-20T11:14:33Z</time></trkpt><trkpt lat="51.6893682629" lon="-2.2127514426"><ele>135.68</ele><time>2014-08-20T11:14:49Z</time></trkpt><trkpt lat="51.6894281097" lon="-2.2127580643"><ele>135.20</ele><time>2014-08-20T11:14:55Z</time></trkpt><trkpt lat="51.6896298621" lon="-2.2127620038"><ele>134.24</ele><time>2014-08-20T11:15:14Z</time></trkpt><trkpt lat="51.6897906270" lon="-2.2127854731"><ele>132.32</ele><time>2014-08-20T11:15:31Z</time></trkpt><trkpt lat="51.6899415851" lon="-2.2127954476"><ele>130.88</ele><time>2014-08-20T11:15:45Z</time></trkpt><trkpt lat="51.6900416650" lon="-2.2128386144"><ele>129.92</ele><time>2014-08-20T11:15:59Z</time></trkpt><trkpt lat="51.6902196128" lon="-2.2128558811"><ele>127.99</ele><time>2014-08-20T11:16:19Z</time></trkpt><trkpt lat="51.6904084571" lon="-2.2129275464"><ele>126.07</ele><time>2014-08-20T11:16:38Z</time></trkpt><trkpt lat="51.6905406397" lon="-2.2130163945"><ele>125.11</ele><time>2014-08-20T11:16:54Z</time></trkpt><trkpt lat="51.6906694695" lon="-2.2131069191"><ele>122.22</ele><time>2014-08-20T11:17:13Z</time></trkpt><trkpt lat="51.6908241995" lon="-2.2132533509"><ele>121.74</ele><time>2014-08-20T11:17:32Z</time></trkpt><trkpt lat="51.6909208428" lon="-2.2133602202"><ele>121.26</ele><time>2014-08-20T11:17:54Z</time></trkpt><trkpt lat="51.6908967029" lon="-2.2133349907"><ele>120.78</ele><time>2014-08-20T11:18:21Z</time></trkpt><trkpt lat="51.6909180768" lon="-2.2133698594"><ele>120.78</ele><time>2014-08-20T11:18:25Z</time></trkpt><trkpt lat="51.6910101939" lon="-2.2135535069"><ele>119.34</ele><time>2014-08-20T11:18:42Z</time></trkpt><trkpt lat="51.6911203321" lon="-2.2136838455"><ele>115.98</ele><time>2014-08-20T11:19:03Z</time></trkpt><trkpt lat="51.6912184004" lon="-2.2136895452"><ele>114.05</ele><time>2014-08-20T11:19:23Z</time></trkpt><trkpt lat="51.6913188994" lon="-2.2138772160"><ele>112.13</ele><time>2014-08-20T11:19:41Z</time></trkpt><trkpt lat="51.6914549377" lon="-2.2141462751"><ele>109.25</ele><time>2014-08-20T11:20:03Z</time></trkpt><trkpt lat="51.6915753018" lon="-2.2142914496"><ele>106.84</ele><time>2014-08-20T11:20:21Z</time></trkpt><trkpt lat="51.6917031258" lon="-2.2143739276"><ele>106.36</ele><time>2014-08-20T11:20:43Z</time></trkpt><trkpt lat="51.6917044669" lon="-2.2143085487"><ele>104.92</ele><time>2014-08-20T11:20:47Z</time></trkpt><trkpt lat="51.6917091608" lon="-2.2142251488"><ele>103.48</ele><time>2014-08-20T11:20:51Z</time></trkpt><trkpt lat="51.6917118430" lon="-2.2142053675"><ele>107.32</ele><time>2014-08-20T11:20:52Z</time></trkpt><trkpt lat="51.6917586979" lon="-2.2138627991"><ele>109.25</ele><time>2014-08-20T11:21:08Z</time></trkpt><trkpt lat="51.6917594522" lon="-2.2138396651"><ele>106.84</ele><time>2014-08-20T11:21:10Z</time></trkpt><trkpt lat="51.6917814128" lon="-2.2135582846"><ele>103.48</ele><time>2014-08-20T11:21:28Z</time></trkpt><trkpt lat="51.6917778086" lon="-2.2133149579"><ele>103.96</ele><time>2014-08-20T11:21:44Z</time></trkpt><trkpt lat="51.6917979252" lon="-2.2130778339"><ele>100.60</ele><time>2014-08-20T11:22:08Z</time></trkpt><trkpt lat="51.6917992663" lon="-2.2129280493"><ele>100.11</ele><time>2014-08-20T11:22:25Z</time></trkpt><trkpt lat="51.6917628888" lon="-2.2127217706"><ele>99.63</ele><time>2014-08-20T11:22:46Z</time></trkpt><trkpt lat="51.6918408405" lon="-2.2129088547"><ele>100.11</ele><time>2014-08-20T11:23:07Z</time></trkpt></trkseg><trkseg><trkpt lat="51.6916670837" lon="-2.2120572533"><ele>95.79</ele><time>2014-08-20T11:25:00Z</time></trkpt><trkpt lat="51.6915931553" lon="-2.2120381426"><ele>93.39</ele><time>2014-08-20T11:25:20Z</time></trkpt><trkpt lat="51.6915307939" lon="-2.2119806428"><ele>90.02</ele><time>2014-08-20T11:25:41Z</time></trkpt><trkpt lat="51.6914577875" lon="-2.2118876874"><ele>88.10</ele><time>2014-08-20T11:25:57Z</time></trkpt><trkpt lat="51.6913886368" lon="-2.2117926367"><ele>86.66</ele><time>2014-08-20T11:26:15Z</time></trkpt><trkpt lat="51.6913663410" lon="-2.2116996814"><ele>84.25</ele><time>2014-08-20T11:26:32Z</time></trkpt><trkpt lat="51.6912918258" lon="-2.2113945801"><ele>83.77</ele><time>2014-08-20T11:26:48Z</time></trkpt><trkpt lat="51.6912398580" lon="-2.2112919856"><ele>82.81</ele><time>2014-08-20T11:26:56Z</time></trkpt><trkpt lat="51.6912154667" lon="-2.2110083420"><ele>82.81</ele><time>2014-08-20T11:27:13Z</time></trkpt><trkpt lat="51.6912427079" lon="-2.2110566217"><ele>84.25</ele><time>2014-08-20T11:27:15Z</time></trkpt><trkpt lat="51.6912733857" lon="-2.2110819351"><ele>84.25</ele><time>2014-08-20T11:27:35Z</time></trkpt><trkpt lat="51.6912943404" lon="-2.2110763192"><ele>84.25</ele><time>2014-08-20T11:27:48Z</time></trkpt><trkpt lat="51.6913717892" lon="-2.2109580506"><ele>84.73</ele><time>2014-08-20T11:28:08Z</time></trkpt><trkpt lat="51.6914706118" lon="-2.2110458091"><ele>84.73</ele><time>2014-08-20T11:28:30Z</time></trkpt><trkpt lat="51.6914748028" lon="-2.2110560350"><ele>83.29</ele><time>2014-08-20T11:28:32Z</time></trkpt><trkpt lat="51.6914742161" lon="-2.2110643331"><ele>89.54</ele><time>2014-08-20T11:28:34Z</time></trkpt><trkpt lat="51.6914732940" lon="-2.2110660933"><ele>87.62</ele><time>2014-08-20T11:28:35Z</time></trkpt><trkpt lat="51.6914743837" lon="-2.2110610642"><ele>84.25</ele><time>2014-08-20T11:28:36Z</time></trkpt><trkpt lat="51.6914408561" lon="-2.2110957652"><ele>86.18</ele><time>2014-08-20T11:28:55Z</time></trkpt><trkpt lat="51.6914401017" lon="-2.2111007106"><ele>89.54</ele><time>2014-08-20T11:29:00Z</time></trkpt><trkpt lat="51.6914399341" lon="-2.2111009620"><ele>85.21</ele><time>2014-08-20T11:29:01Z</time></trkpt><trkpt lat="51.6914694384" lon="-2.2111339029"><ele>88.58</ele><time>2014-08-20T11:29:19Z</time></trkpt><trkpt lat="51.6915869527" lon="-2.2109976970"><ele>87.62</ele><time>2014-08-20T11:29:38Z</time></trkpt><trkpt lat="51.6916276887" lon="-2.2110212501"><ele>86.66</ele><time>2014-08-20T11:29:51Z</time></trkpt><trkpt lat="51.6916103382" lon="-2.2110584658"><ele>88.10</ele><time>2014-08-20T11:29:57Z</time></trkpt><trkpt lat="51.6915939096" lon="-2.2110786662"><ele>93.87</ele><time>2014-08-20T11:29:59Z</time></trkpt><trkpt lat="51.6915838514" lon="-2.2110890597"><ele>88.58</ele><time>2014-08-20T11:30:00Z</time></trkpt><trkpt lat="51.6916262638" lon="-2.2110025585"><ele>88.10</ele><time>2014-08-20T11:30:19Z</time></trkpt><trkpt lat="51.6916205641" lon="-2.2110731341"><ele>87.14</ele><time>2014-08-20T11:30:25Z</time></trkpt><trkpt lat="51.6916476376" lon="-2.2112442926"><ele>85.21</ele><time>2014-08-20T11:30:37Z</time></trkpt><trkpt lat="51.6916428600" lon="-2.2112477291"><ele>87.62</ele><time>2014-08-20T11:30:38Z</time></trkpt><trkpt lat="51.6916452907" lon="-2.2110847849"><ele>88.10</ele><time>2014-08-20T11:30:58Z</time></trkpt><trkpt lat="51.6916539241" lon="-2.2110597230"><ele>84.25</ele><time>2014-08-20T11:31:00Z</time></trkpt><trkpt lat="51.6916574445" lon="-2.2110512573"><ele>89.06</ele><time>2014-08-20T11:31:01Z</time></trkpt><trkpt lat="51.6916728672" lon="-2.2110118624"><ele>82.81</ele><time>2014-08-20T11:31:05Z</time></trkpt><trkpt lat="51.6916775610" lon="-2.2110029776"><ele>89.54</ele><time>2014-08-20T11:31:06Z</time></trkpt><trkpt lat="51.6916864458" lon="-2.2109746467"><ele>90.50</ele><time>2014-08-20T11:31:08Z</time></trkpt><trkpt lat="51.6916939057" lon="-2.2109399457"><ele>85.21</ele><time>2014-08-20T11:31:10Z</time></trkpt><trkpt lat="51.6916978452" lon="-2.2109224275"><ele>90.02</ele><time>2014-08-20T11:31:11Z</time></trkpt><trkpt lat="51.6917110886" lon="-2.2108676098"><ele>88.58</ele><time>2014-08-20T11:31:14Z</time></trkpt><trkpt lat="51.6917224880" lon="-2.2108194977"><ele>90.50</ele><time>2014-08-20T11:31:16Z</time></trkpt><trkpt lat="51.6917376593" lon="-2.2107631713"><ele>90.98</ele><time>2014-08-20T11:31:19Z</time></trkpt><trkpt lat="51.6917477176" lon="-2.2107221838"><ele>86.66</ele><time>2014-08-20T11:31:21Z</time></trkpt><trkpt lat="51.6917471308" lon="-2.2107199207"><ele>95.79</ele><time>2014-08-20T11:31:22Z</time></trkpt><trkpt lat="51.6917488072" lon="-2.2107120417"><ele>88.10</ele><time>2014-08-20T11:31:23Z</time></trkpt><trkpt lat="51.6917539202" lon="-2.2107073478"><ele>91.46</ele><time>2014-08-20T11:31:24Z</time></trkpt><trkpt lat="51.6917590331" lon="-2.2106996365"><ele>93.39</ele><time>2014-08-20T11:31:26Z</time></trkpt><trkpt lat="51.6917559318" lon="-2.2107013129"><ele>90.98</ele><time>2014-08-20T11:31:27Z</time></trkpt><trkpt lat="51.6917514056" lon="-2.2107013129"><ele>91.94</ele><time>2014-08-20T11:31:28Z</time></trkpt><trkpt lat="51.6917455383" lon="-2.2107030731"><ele>95.31</ele><time>2014-08-20T11:31:29Z</time></trkpt><trkpt lat="51.6917400900" lon="-2.2107076831"><ele>90.50</ele><time>2014-08-20T11:31:30Z</time></trkpt><trkpt lat="51.6917327140" lon="-2.2107158136"><ele>88.58</ele><time>2014-08-20T11:31:31Z</time></trkpt><trkpt lat="51.6917205602" lon="-2.2107275482"><ele>94.35</ele><time>2014-08-20T11:31:32Z</time></trkpt><trkpt lat="51.6917141899" lon="-2.2107304819"><ele>96.75</ele><time>2014-08-20T11:31:33Z</time></trkpt><trkpt lat="51.6917052213" lon="-2.2107350081"><ele>93.39</ele><time>2014-08-20T11:31:34Z</time></trkpt><trkpt lat="51.6918100789" lon="-2.2106393706"><ele>93.39</ele><time>2014-08-20T11:31:51Z</time></trkpt><trkpt lat="51.6918098275" lon="-2.2106328327"><ele>93.87</ele><time>2014-08-20T11:31:52Z</time></trkpt><trkpt lat="51.6918089893" lon="-2.2106292285"><ele>94.83</ele><time>2014-08-20T11:31:55Z</time></trkpt><trkpt lat="51.6918082349" lon="-2.2106260434"><ele>93.87</ele><time>2014-08-20T11:31:58Z</time></trkpt><trkpt lat="51.6918079834" lon="-2.2106249537"><ele>91.94</ele><time>2014-08-20T11:31:59Z</time></trkpt><trkpt lat="51.6918077320" lon="-2.2106239479"><ele>94.35</ele><time>2014-08-20T11:32:00Z</time></trkpt><trkpt lat="51.6918074805" lon="-2.2106226906"><ele>95.79</ele><time>2014-08-20T11:32:01Z</time></trkpt><trkpt lat="51.6918072291" lon="-2.2106216010"><ele>93.39</ele><time>2014-08-20T11:32:02Z</time></trkpt><trkpt lat="51.6918067262" lon="-2.2106194217"><ele>94.83</ele><time>2014-08-20T11:32:04Z</time></trkpt><trkpt lat="51.6918063071" lon="-2.2106176615"><ele>89.06</ele><time>2014-08-20T11:32:06Z</time></trkpt><trkpt lat="51.6918059718" lon="-2.2106164042"><ele>95.31</ele><time>2014-08-20T11:32:07Z</time></trkpt><trkpt lat="51.6920023598" lon="-2.2104544658"><ele>91.94</ele><time>2014-08-20T11:32:15Z</time></trkpt><trkpt lat="51.6920348816" lon="-2.2104068566"><ele>96.27</ele><time>2014-08-20T11:32:16Z</time></trkpt><trkpt lat="51.6920540761" lon="-2.2103664558"><ele>95.31</ele><time>2014-08-20T11:32:17Z</time></trkpt><trkpt lat="51.6920938902" lon="-2.2103296593"><ele>88.58</ele><time>2014-08-20T11:32:22Z</time></trkpt><trkpt lat="51.6920953151" lon="-2.2103361972"><ele>92.42</ele><time>2014-08-20T11:32:23Z</time></trkpt><trkpt lat="51.6920932196" lon="-2.2103708144"><ele>88.58</ele><time>2014-08-20T11:32:27Z</time></trkpt><trkpt lat="51.6920932196" lon="-2.2103779390"><ele>84.25</ele><time>2014-08-20T11:32:28Z</time></trkpt><trkpt lat="51.6920950636" lon="-2.2103780229"><ele>105.88</ele><time>2014-08-20T11:32:29Z</time></trkpt><trkpt lat="51.6920990869" lon="-2.2103797831"><ele>93.39</ele><time>2014-08-20T11:32:30Z</time></trkpt><trkpt lat="51.6921073012" lon="-2.2103147395"><ele>89.06</ele><time>2014-08-20T11:32:49Z</time></trkpt><trkpt lat="51.6921061277" lon="-2.2103069443"><ele>97.23</ele><time>2014-08-20T11:32:50Z</time></trkpt><trkpt lat="51.6921047866" lon="-2.2102972213"><ele>93.39</ele><time>2014-08-20T11:32:51Z</time></trkpt><trkpt lat="51.6920621227" lon="-2.2101877537"><ele>96.27</ele><time>2014-08-20T11:33:09Z</time></trkpt><trkpt lat="51.6921414994" lon="-2.2099628672"><ele>94.35</ele><time>2014-08-20T11:33:29Z</time></trkpt><trkpt lat="51.6921922099" lon="-2.2097227257"><ele>94.83</ele><time>2014-08-20T11:33:50Z</time></trkpt><trkpt lat="51.6921548266" lon="-2.2096120007"><ele>95.31</ele><time>2014-08-20T11:34:10Z</time></trkpt><trkpt lat="51.6921897791" lon="-2.2094310354"><ele>95.31</ele><time>2014-08-20T11:34:28Z</time></trkpt><trkpt lat="51.6921873484" lon="-2.2092953324"><ele>94.83</ele><time>2014-08-20T11:34:38Z</time></trkpt><trkpt lat="51.6921241488" lon="-2.2093240824"><ele>94.35</ele><time>2014-08-20T11:34:55Z</time></trkpt><trkpt lat="51.6921137553" lon="-2.2094367351"><ele>92.90</ele><time>2014-08-20T11:35:18Z</time></trkpt><trkpt lat="51.6921621189" lon="-2.2093831748"><ele>94.83</ele><time>2014-08-20T11:35:21Z</time></trkpt><trkpt lat="51.6921601072" lon="-2.2093285248"><ele>93.39</ele><time>2014-08-20T11:35:25Z</time></trkpt><trkpt lat="51.6922045313" lon="-2.2091053985"><ele>93.39</ele><time>2014-08-20T11:35:43Z</time></trkpt><trkpt lat="51.6922031902" lon="-2.2090748046"><ele>93.87</ele><time>2014-08-20T11:35:45Z</time></trkpt><trkpt lat="51.6922038607" lon="-2.2087475751"><ele>95.79</ele><time>2014-08-20T11:36:05Z</time></trkpt><trkpt lat="51.6921978258" lon="-2.2087173164"><ele>90.98</ele><time>2014-08-20T11:36:07Z</time></trkpt><trkpt lat="51.6921608616" lon="-2.2085845470"><ele>94.35</ele><time>2014-08-20T11:36:10Z</time></trkpt><trkpt lat="51.6921465285" lon="-2.2085034102"><ele>91.94</ele><time>2014-08-20T11:36:15Z</time></trkpt><trkpt lat="51.6921425890" lon="-2.2084817849"><ele>93.39</ele><time>2014-08-20T11:36:17Z</time></trkpt><trkpt lat="51.6921281721" lon="-2.2084160708"><ele>92.42</ele><time>2014-08-20T11:36:35Z</time></trkpt><trkpt lat="51.6921088938" lon="-2.2080154996"><ele>90.98</ele><time>2014-08-20T11:36:43Z</time></trkpt><trkpt lat="51.6921178624" lon="-2.2075667325"><ele>90.98</ele><time>2014-08-20T11:37:05Z</time></trkpt><trkpt lat="51.6921047028" lon="-2.2073911317"><ele>90.02</ele><time>2014-08-20T11:37:25Z</time></trkpt><trkpt lat="51.6920693312" lon="-2.2070419416"><ele>90.02</ele><time>2014-08-20T11:37:45Z</time></trkpt><trkpt lat="51.6920761205" lon="-2.2067844495"><ele>90.02</ele><time>2014-08-20T11:38:04Z</time></trkpt><trkpt lat="51.6920398269" lon="-2.2065547854"><ele>89.06</ele><time>2014-08-20T11:38:24Z</time></trkpt><trkpt lat="51.6920596082" lon="-2.2064672783"><ele>90.50</ele><time>2014-08-20T11:38:31Z</time></trkpt><trkpt lat="51.6920778807" lon="-2.2061437368"><ele>90.02</ele><time>2014-08-20T11:38:54Z</time></trkpt><trkpt lat="51.6920717619" lon="-2.2059808765"><ele>91.94</ele><time>2014-08-20T11:39:08Z</time></trkpt><trkpt lat="51.6920726839" lon="-2.2059652861"><ele>90.02</ele><time>2014-08-20T11:39:10Z</time></trkpt><trkpt lat="51.6921087261" lon="-2.2059615143"><ele>90.02</ele><time>2014-08-20T11:39:37Z</time></trkpt></trkseg><trkseg><trkpt lat="51.6918789782" lon="-2.2045448050"><ele>78.00</ele><time>2014-08-20T11:42:43Z</time></trkpt><trkpt lat="51.6918503121" lon="-2.2045137081"><ele>78.00</ele><time>2014-08-20T11:42:46Z</time></trkpt><trkpt lat="51.6918902937" lon="-2.2044062521"><ele>74.16</ele><time>2014-08-20T11:43:06Z</time></trkpt><trkpt lat="51.6919199657" lon="-2.2043775860"><ele>74.16</ele><time>2014-08-20T11:43:09Z</time></trkpt><trkpt lat="51.6921192873" lon="-2.2041855566"><ele>73.20</ele><time>2014-08-20T11:43:27Z</time></trkpt><trkpt lat="51.6921744402" lon="-2.2041456588"><ele>68.39</ele><time>2014-08-20T11:43:32Z</time></trkpt><trkpt lat="51.6921835765" lon="-2.2041376121"><ele>72.72</ele><time>2014-08-20T11:43:33Z</time></trkpt><trkpt lat="51.6923342831" lon="-2.2036766913"><ele>71.76</ele><time>2014-08-20T11:43:54Z</time></trkpt><trkpt lat="51.6923369654" lon="-2.2034254856"><ele>71.27</ele><time>2014-08-20T11:44:05Z</time></trkpt><trkpt lat="51.6923447605" lon="-2.2032769583"><ele>70.31</ele><time>2014-08-20T11:44:12Z</time></trkpt><trkpt lat="51.6923114844" lon="-2.2030436900"><ele>70.31</ele><time>2014-08-20T11:44:33Z</time></trkpt><trkpt lat="51.6923598479" lon="-2.2028547619"><ele>71.76</ele><time>2014-08-20T11:44:53Z</time></trkpt><trkpt lat="51.6924100555" lon="-2.2027389240"><ele>71.76</ele><time>2014-08-20T11:45:01Z</time></trkpt><trkpt lat="51.6924696509" lon="-2.2023646720"><ele>71.27</ele><time>2014-08-20T11:45:20Z</time></trkpt><trkpt lat="51.6924803797" lon="-2.2019951139"><ele>71.27</ele><time>2014-08-20T11:45:43Z</time></trkpt><trkpt lat="51.6923966445" lon="-2.2017332632"><ele>71.76</ele><time>2014-08-20T11:45:58Z</time></trkpt><trkpt lat="51.6923671402" lon="-2.2016900964"><ele>71.76</ele><time>2014-08-20T11:46:12Z</time></trkpt></trkseg></trk></gpx>